Wetterdaten: Freitag, 05.10.2018
Datum Zeit Temp. Aussen Temp. o. S. +5cm Feuchte Auss Luftdruck Regen Sonnenschein Regendauer Solar Windben Empfang
05.10.2018 00:00 10,4 C 10,0 C 9,4 C 92 % 1021,6 hPa 0,0 l/m 0 min 0 min 0 W/m 9,7 km/h (2 Bft) 97,83 %
05.10.2018 00:02 10,4 C 10,0 C 10,0 C 92 % 1021,5 hPa 0,0 l/m 0 min 0 min 0 W/m 6,4 km/h (2 Bft) 11,76 %
05.10.2018 00:04 10,4 C 10,0 C 10,0 C 92 % 1021,5 hPa 0,0 l/m 0 min 0 min 0 W/m 9,7 km/h (2 Bft) 82,35 %
05.10.2018 00:07 10,4 C 10,0 C 10,0 C 92 % 1021,5 hPa 0,0 l/m 0 min 0 min 0 W/m 9,7 km/h (2 Bft) 82,35 %
05.10.2018 00:10 10,4 C 10,0 C 10,0 C 92 % 1021,5 hPa 0,0 l/m 0 min 0 min 0 W/m 9,7 km/h (2 Bft) 97,16 %
05.10.2018 00:12 10,4 C 10,0 C 10,0 C 92 % 1021,5 hPa 0,0 l/m 0 min 0 min 0 W/m 6,4 km/h (2 Bft) 97,87 %
05.10.2018 00:14 10,4 C 10,0 C 10,0 C 92 % 1021,5 hPa 0,0 l/m 0 min 0 min 0 W/m 6,4 km/h (2 Bft) 97,87 %
05.10.2018 00:16 10,4 C 10,0 C 10,0 C 92 % 1021,5 hPa 0,0 l/m 0 min 0 min 0 W/m 12,9 km/h (3 Bft) 97,87 %
05.10.2018 00:18 10,4 C 10,0 C 10,0 C 92 % 1021,5 hPa 0,0 l/m 0 min 0 min 0 W/m 9,7 km/h (2 Bft) 97,87 %
05.10.2018 00:20 10,4 C 10,0 C 9,4 C 92 % 1021,5 hPa 0,0 l/m 0 min 0 min 0 W/m 6,4 km/h (2 Bft) 97,87 %
05.10.2018 00:22 10,4 C 10,0 C 9,4 C 92 % 1021,5 hPa 0,0 l/m 0 min 0 min 0 W/m 9,7 km/h (2 Bft) 97,87 %
05.10.2018 00:24 10,4 C 10,0 C 10,0 C 92 % 1021,5 hPa 0,0 l/m 0 min 0 min 0 W/m 6,4 km/h (2 Bft) 95,74 %
05.10.2018 00:26 10,4 C 10,0 C 10,0 C 92 % 1021,4 hPa 0,0 l/m 0 min 0 min 0 W/m 6,4 km/h (2 Bft) 95,74 %
05.10.2018 00:28 10,4 C 10,0 C 9,4 C 92 % 1021,4 hPa 0,0 l/m 0 min 0 min 0 W/m 6,4 km/h (2 Bft) 97,87 %
05.10.2018 00:30 10,4 C 10,0 C 9,4 C 92 % 1021,4 hPa 0,0 l/m 0 min 0 min 0 W/m 9,7 km/h (2 Bft) 91,49 %
05.10.2018 00:32 10,4 C 10,0 C 9,4 C 92 % 1021,4 hPa 0,0 l/m 0 min 0 min 0 W/m 6,4 km/h (2 Bft) 95,74 %
05.10.2018 00:34 10,4 C 9,4 C 9,4 C 92 % 1021,4 hPa 0,0 l/m 0 min 0 min 0 W/m 6,4 km/h (2 Bft) 97,83 %
05.10.2018 00:36 10,4 C 9,4 C 9,4 C 92 % 1021,4 hPa 0,0 l/m 0 min 0 min 0 W/m 6,4 km/h (2 Bft) 97,92 %
05.10.2018 00:38 10,4 C 9,4 C 9,4 C 92 % 1021,4 hPa 0,0 l/m 0 min 0 min 0 W/m 6,4 km/h (2 Bft) 95,74 %
05.10.2018 00:40 10,4 C 9,4 C 9,4 C 92 % 1021,3 hPa 0,0 l/m 0 min 0 min 0 W/m 9,7 km/h (2 Bft) 97,87 %
05.10.2018 00:42 10,4 C 9,4 C 9,4 C 92 % 1021,4 hPa 0,0 l/m 0 min 0 min 0 W/m 6,4 km/h (2 Bft) 97,87 %
05.10.2018 00:44 10,3 C 9,4 C 9,4 C 92 % 1021,3 hPa 0,0 l/m 0 min 0 min 0 W/m 6,4 km/h (2 Bft) 97,87 %
05.10.2018 00:46 10,3 C 9,4 C 9,4 C 92 % 1021,3 hPa 0,0 l/m 0 min 0 min 0 W/m 9,7 km/h (2 Bft) 95,65 %
05.10.2018 00:48 10,3 C 9,4 C 9,4 C 92 % 1021,3 hPa 0,0 l/m 0 min 0 min 0 W/m 6,4 km/h (2 Bft) 97,87 %
05.10.2018 00:50 10,3 C 10,0 C 9,4 C 92 % 1021,3 hPa 0,0 l/m 0 min 0 min 0 W/m 12,9 km/h (3 Bft) 97,87 %
05.10.2018 00:52 10,3 C 10,0 C 9,4 C 92 % 1021,2 hPa 0,0 l/m 0 min 0 min 0 W/m 12,9 km/h (3 Bft) 97,92 %
05.10.2018 00:54 10,3 C 10,0 C 9,4 C 92 % 1021,3 hPa 0,0 l/m 0 min 0 min 0 W/m 6,4 km/h (2 Bft) 95,65 %
05.10.2018 00:56 10,3 C 10,0 C 9,4 C 92 % 1021,3 hPa 0,0 l/m 0 min 0 min 0 W/m 9,7 km/h (2 Bft) 96,61 %
05.10.2018 00:58 10,3 C 9,4 C 9,4 C 92 % 1021,2 hPa 0,0 l/m 0 min 0 min 0 W/m 9,7 km/h (2 Bft) 97,83 %
05.10.2018 01:00 10,3 C 9,4 C 9,4 C 92 % 1021,3 hPa 0,0 l/m 0 min 0 min 0 W/m 6,4 km/h (2 Bft) 97,87 %
05.10.2018 01:02 10,3 C 9,4 C 9,4 C 92 % 1021,2 hPa 0,0 l/m 0 min 0 min 0 W/m 12,9 km/h (3 Bft) 97,87 %
05.10.2018 01:04 10,3 C 9,4 C 9,4 C 92 % 1021,2 hPa 0,0 l/m 0 min 0 min 0 W/m 9,7 km/h (2 Bft) 97,87 %
05.10.2018 01:06 10,3 C 9,4 C 9,4 C 92 % 1021,2 hPa 0,0 l/m 0 min 0 min 0 W/m 9,7 km/h (2 Bft) 95,74 %
05.10.2018 01:08 10,3 C 9,4 C 9,4 C 92 % 1021,2 hPa 0,0 l/m 0 min 0 min 0 W/m 9,7 km/h (2 Bft) 95,74 %
05.10.2018 01:10 10,3 C 9,4 C 9,4 C 92 % 1021,1 hPa 0,0 l/m 0 min 0 min 0 W/m 9,7 km/h (2 Bft) 97,87 %
05.10.2018 01:12 10,2 C 9,4 C 9,4 C 92 % 1021,1 hPa 0,0 l/m 0 min 0 min 0 W/m 9,7 km/h (2 Bft) 95,65 %
05.10.2018 01:14 10,3 C 9,4 C 9,4 C 92 % 1021,1 hPa 0,0 l/m 0 min 0 min 0 W/m 9,7 km/h (2 Bft) 97,87 %
05.10.2018 01:16 10,2 C 9,4 C 9,4 C 92 % 1021,0 hPa 0,0 l/m 0 min 0 min 0 W/m 12,9 km/h (3 Bft) 97,87 %
05.10.2018 01:18 10,2 C 9,4 C 9,4 C 92 % 1021,1 hPa 0,0 l/m 0 min 0 min 0 W/m 9,7 km/h (2 Bft) 100,00 %
05.10.2018 01:20 10,2 C 9,4 C 9,4 C 92 % 1021,1 hPa 0,0 l/m 0 min 0 min 0 W/m 6,4 km/h (2 Bft) 100,00 %
05.10.2018 01:22 10,2 C 9,4 C 9,4 C 92 % 1021,0 hPa 0,0 l/m 0 min 0 min 0 W/m 6,4 km/h (2 Bft) 100,00 %
05.10.2018 01:24 10,2 C 9,4 C 9,4 C 92 % 1021,0 hPa 0,0 l/m 0 min 0 min 0 W/m 9,7 km/h (2 Bft) 100,00 %
05.10.2018 01:26 10,2 C 9,4 C 9,4 C 92 % 1021,0 hPa 0,0 l/m 0 min 0 min 0 W/m 6,4 km/h (2 Bft) 97,87 %
05.10.2018 01:28 10,2 C 9,4 C 9,4 C 92 % 1020,9 hPa 0,0 l/m 0 min 0 min 0 W/m 12,9 km/h (3 Bft) 100,00 %
05.10.2018 01:30 10,2 C 9,4 C 9,4 C 92 % 1021,0 hPa 0,0 l/m 0 min 0 min 0 W/m 12,9 km/h (3 Bft) 100,00 %
05.10.2018 01:32 10,2 C 9,4 C 9,4 C 92 % 1021,0 hPa 0,0 l/m 0 min 0 min 0 W/m 9,7 km/h (2 Bft) 100,00 %
05.10.2018 01:34 10,2 C 9,4 C 9,4 C 92 % 1021,0 hPa 0,0 l/m 0 min 0 min 0 W/m 9,7 km/h (2 Bft) 100,00 %
05.10.2018 01:36 10,2 C 9,4 C 9,4 C 92 % 1021,0 hPa 0,0 l/m 0 min 0 min 0 W/m 12,9 km/h (3 Bft) 100,00 %
05.10.2018 01:38 10,2 C 9,4 C 9,4 C 92 % 1020,9 hPa 0,0 l/m 0 min 0 min 0 W/m 6,4 km/h (2 Bft) 100,00 %
05.10.2018 01:40 10,2 C 9,4 C 9,4 C 92 % 1021,0 hPa 0,0 l/m 0 min 0 min 0 W/m 9,7 km/h (2 Bft) 97,87 %
05.10.2018 01:42 10,2 C 9,4 C 9,4 C 92 % 1021,0 hPa 0,0 l/m 0 min 0 min 0 W/m 9,7 km/h (2 Bft) 100,00 %
05.10.2018 01:44 10,1 C 9,4 C 9,4 C 92 % 1021,0 hPa 0,0 l/m 0 min 0 min 0 W/m 12,9 km/h (3 Bft) 100,00 %
05.10.2018 01:46 10,1 C 9,4 C 9,4 C 92 % 1021,0 hPa 0,0 l/m 0 min 0 min 0 W/m 12,9 km/h (3 Bft) 100,00 %
05.10.2018 01:48 10,1 C 9,4 C 9,4 C 92 % 1020,9 hPa 0,0 l/m 0 min 0 min 0 W/m 6,4 km/h (2 Bft) 100,00 %
05.10.2018 01:50 10,1 C 9,4 C 9,4 C 92 % 1020,9 hPa 0,0 l/m 0 min 0 min 0 W/m 6,4 km/h (2 Bft) 97,87 %
05.10.2018 01:52 10,1 C 9,4 C 9,4 C 93 % 1020,9 hPa 0,0 l/m 0 min 0 min 0 W/m 9,7 km/h (2 Bft) 97,87 %
05.10.2018 01:54 10,1 C 9,4 C 9,4 C 93 % 1020,9 hPa 0,0 l/m 0 min 0 min 0 W/m 9,7 km/h (2 Bft) 95,74 %
05.10.2018 01:56 10,1 C 9,4 C 9,4 C 93 % 1020,9 hPa 0,0 l/m 0 min 0 min 0 W/m 12,9 km/h (3 Bft) 97,87 %
05.10.2018 01:58 10,1 C 9,4 C 9,4 C 93 % 1020,9 hPa 0,0 l/m 0 min 0 min 0 W/m 6,4 km/h (2 Bft) 97,83 %
05.10.2018 02:00 10,1 C 9,4 C 9,4 C 93 % 1020,9 hPa 0,0 l/m 0 min 0 min 0 W/m 6,4 km/h (2 Bft) 97,87 %
05.10.2018 02:02 10,0 C 9,4 C 9,4 C 93 % 1020,9 hPa 0,0 l/m 0 min 0 min 0 W/m 12,9 km/h (3 Bft) 97,87 %
05.10.2018 02:04 10,0 C 9,4 C 9,4 C 93 % 1020,9 hPa 0,0 l/m 0 min 0 min 0 W/m 9,7 km/h (2 Bft) 97,87 %
05.10.2018 02:06 10,0 C 9,4 C 9,4 C 93 % 1020,9 hPa 0,0 l/m 0 min 0 min 0 W/m 6,4 km/h (2 Bft) 97,87 %
05.10.2018 02:08 10,0 C 9,4 C 9,4 C 93 % 1020,9 hPa 0,0 l/m 0 min 0 min 0 W/m 9,7 km/h (2 Bft) 97,87 %
05.10.2018 02:10 10,0 C 9,4 C 9,4 C 93 % 1020,9 hPa 0,0 l/m 0 min 0 min 0 W/m 9,7 km/h (2 Bft) 97,83 %
05.10.2018 02:12 10,0 C 9,4 C 9,4 C 93 % 1020,9 hPa 0,0 l/m 0 min 0 min 0 W/m 12,9 km/h (3 Bft) 95,74 %
05.10.2018 02:14 10,0 C 9,4 C 9,4 C 93 % 1020,8 hPa 0,0 l/m 0 min 0 min 0 W/m 9,7 km/h (2 Bft) 97,87 %
05.10.2018 02:16 9,9 C 9,4 C 9,4 C 93 % 1020,8 hPa 0,0 l/m 0 min 0 min 0 W/m 9,7 km/h (2 Bft) 97,87 %
05.10.2018 02:18 9,9 C 9,4 C 9,4 C 93 % 1020,9 hPa 0,0 l/m 0 min 0 min 0 W/m 9,7 km/h (2 Bft) 97,87 %
05.10.2018 02:20 9,9 C 9,4 C 9,4 C 93 % 1020,8 hPa 0,0 l/m 0 min 0 min 0 W/m 6,4 km/h (2 Bft) 93,62 %
05.10.2018 02:22 9,9 C 9,4 C 9,4 C 93 % 1020,8 hPa 0,0 l/m 0 min 0 min 0 W/m 16,1 km/h (3 Bft) 97,83 %
05.10.2018 02:24 9,9 C 9,4 C 9,4 C 93 % 1020,7 hPa 0,0 l/m 0 min 0 min 0 W/m 9,7 km/h (2 Bft) 97,87 %
05.10.2018 02:26 9,9 C 9,4 C 9,4 C 93 % 1020,7 hPa 0,0 l/m 0 min 0 min 0 W/m 9,7 km/h (2 Bft) 97,87 %
05.10.2018 02:28 9,9 C 9,4 C 9,4 C 93 % 1020,8 hPa 0,0 l/m 0 min 0 min 0 W/m 12,9 km/h (3 Bft) 97,87 %
05.10.2018 02:30 9,9 C 9,4 C 9,4 C 93 % 1020,8 hPa 0,0 l/m 0 min 0 min 0 W/m 9,7 km/h (2 Bft) 95,74 %
05.10.2018 02:32 9,9 C 9,4 C 9,4 C 93 % 1020,8 hPa 0,0 l/m 0 min 0 min 0 W/m 12,9 km/h (3 Bft) 97,83 %
05.10.2018 02:34 9,9 C 9,4 C 9,4 C 93 % 1020,8 hPa 0,0 l/m 0 min 0 min 0 W/m 12,9 km/h (3 Bft) 97,87 %
05.10.2018 02:36 9,8 C 9,4 C 9,4 C 93 % 1020,8 hPa 0,0 l/m 0 min 0 min 0 W/m 6,4 km/h (2 Bft) 97,87 %
05.10.2018 02:38 9,8 C 8,9 C 9,4 C 93 % 1020,8 hPa 0,0 l/m 0 min 0 min 0 W/m 9,7 km/h (2 Bft) 100,00 %
05.10.2018 02:40 9,8 C 9,4 C 9,4 C 93 % 1020,8 hPa 0,0 l/m 0 min 0 min 0 W/m 12,9 km/h (3 Bft) 100,00 %
05.10.2018 02:42 9,8 C 8,9 C 9,4 C 93 % 1020,8 hPa 0,0 l/m 0 min 0 min 0 W/m 9,7 km/h (2 Bft) 100,00 %
05.10.2018 02:44 9,8 C 9,4 C 9,4 C 93 % 1020,7 hPa 0,0 l/m 0 min 0 min 0 W/m 12,9 km/h (3 Bft) 97,87 %
05.10.2018 02:46 9,8 C 8,9 C 9,4 C 93 % 1020,7 hPa 0,0 l/m 0 min 0 min 0 W/m 6,4 km/h (2 Bft) 100,00 %
05.10.2018 02:48 9,8 C 8,9 C 9,4 C 93 % 1020,7 hPa 0,0 l/m 0 min 0 min 0 W/m 9,7 km/h (2 Bft) 100,00 %
05.10.2018 02:50 9,8 C 8,9 C 9,4 C 93 % 1020,7 hPa 0,0 l/m 0 min 0 min 0 W/m 12,9 km/h (3 Bft) 100,00 %
05.10.2018 02:52 9,8 C 8,9 C 8,9 C 93 % 1020,6 hPa 0,0 l/m 0 min 0 min 0 W/m 12,9 km/h (3 Bft) 95,74 %
05.10.2018 02:54 9,7 C 8,9 C 9,4 C 93 % 1020,6 hPa 0,0 l/m 0 min 0 min 0 W/m 12,9 km/h (3 Bft) 100,00 %
05.10.2018 02:56 9,7 C 8,9 C 9,4 C 93 % 1020,6 hPa 0,0 l/m 0 min 0 min 0 W/m 12,9 km/h (3 Bft) 97,83 %
05.10.2018 02:58 9,7 C 8,9 C 9,4 C 93 % 1020,5 hPa 0,0 l/m 0 min 0 min 0 W/m 12,9 km/h (3 Bft) 97,87 %
05.10.2018 03:00 9,7 C 8,9 C 9,4 C 93 % 1020,6 hPa 0,0 l/m 0 min 0 min 0 W/m 9,7 km/h (2 Bft) 97,87 %
05.10.2018 03:02 9,7 C 8,9 C 9,4 C 93 % 1020,6 hPa 0,0 l/m 0 min 0 min 0 W/m 12,9 km/h (3 Bft) 97,87 %
05.10.2018 03:04 9,7 C 9,4 C 9,4 C 93 % 1020,6 hPa 0,0 l/m 0 min 0 min 0 W/m 12,9 km/h (3 Bft) 100,00 %
05.10.2018 03:06 9,7 C 8,9 C 9,4 C 93 % 1020,5 hPa 0,0 l/m 0 min 0 min 0 W/m 9,7 km/h (2 Bft) 95,74 %
05.10.2018 03:08 9,7 C 9,4 C 9,4 C 93 % 1020,5 hPa 0,0 l/m 0 min 0 min 0 W/m 9,7 km/h (2 Bft) 97,83 %
05.10.2018 03:10 9,7 C 9,4 C 9,4 C 93 % 1020,5 hPa 0,0 l/m 0 min 0 min 0 W/m 12,9 km/h (3 Bft) 97,87 %
05.10.2018 03:12 9,7 C 9,4 C 9,4 C 93 % 1020,4 hPa 0,0 l/m 0 min 0 min 0 W/m 12,9 km/h (3 Bft) 97,87 %
05.10.2018 03:14 9,7 C 9,4 C 9,4 C 93 % 1020,4 hPa 0,0 l/m 0 min 0 min 0 W/m 12,9 km/h (3 Bft) 97,87 %
05.10.2018 03:16 9,7 C 9,4 C 9,4 C 93 % 1020,4 hPa 0,0 l/m 0 min 0 min 0 W/m 9,7 km/h (2 Bft) 97,87 %
05.10.2018 03:18 9,7 C 8,9 C 9,4 C 93 % 1020,4 hPa 0,0 l/m 0 min 0 min 0 W/m 9,7 km/h (2 Bft) 97,87 %
05.10.2018 03:20 9,7 C 8,9 C 9,4 C 93 % 1020,4 hPa 0,0 l/m 0 min 0 min 0 W/m 9,7 km/h (2 Bft) 97,83 %
05.10.2018 03:22 9,7 C 9,4 C 9,4 C 93 % 1020,4 hPa 0,0 l/m 0 min 0 min 0 W/m 9,7 km/h (2 Bft) 96,23 %
05.10.2018 03:24 9,7 C 8,9 C 9,4 C 93 % 1020,4 hPa 0,0 l/m 0 min 0 min 0 W/m 12,9 km/h (3 Bft) 97,87 %
05.10.2018 03:26 9,7 C 8,9 C 9,4 C 93 % 1020,3 hPa 0,0 l/m 0 min 0 min 0 W/m 12,9 km/h (3 Bft) 97,87 %
05.10.2018 03:28 9,7 C 9,4 C 9,4 C 93 % 1020,4 hPa 0,0 l/m 0 min 0 min 0 W/m 12,9 km/h (3 Bft) 93,62 %
05.10.2018 03:30 9,7 C 8,9 C 9,4 C 93 % 1020,3 hPa 0,0 l/m 0 min 0 min 0 W/m 6,4 km/h (2 Bft) 95,65 %
05.10.2018 03:32 9,7 C 8,9 C 8,9 C 93 % 1020,3 hPa 0,0 l/m 0 min 0 min 0 W/m 9,7 km/h (2 Bft) 95,74 %
05.10.2018 03:34 9,6 C 8,9 C 9,4 C 93 % 1020,3 hPa 0,0 l/m 0 min 0 min 0 W/m 12,9 km/h (3 Bft) 95,74 %
05.10.2018 03:36 9,7 C 8,9 C 8,9 C 93 % 1020,2 hPa 0,0 l/m 0 min 0 min 0 W/m 9,7 km/h (2 Bft) 95,74 %
05.10.2018 03:38 9,6 C 8,9 C 9,4 C 93 % 1020,3 hPa 0,0 l/m 0 min 0 min 0 W/m 6,4 km/h (2 Bft) 95,74 %
05.10.2018 03:40 9,6 C 8,9 C 9,4 C 93 % 1020,3 hPa 0,0 l/m 0 min 0 min 0 W/m 6,4 km/h (2 Bft) 93,62 %
05.10.2018 03:42 9,6 C 8,9 C 9,4 C 93 % 1020,2 hPa 0,0 l/m 0 min 0 min 0 W/m 12,9 km/h (3 Bft) 93,48 %
05.10.2018 03:44 9,6 C 8,9 C 8,9 C 93 % 1020,1 hPa 0,0 l/m 0 min 0 min 0 W/m 6,4 km/h (2 Bft) 95,74 %
05.10.2018 03:46 9,6 C 8,9 C 8,9 C 93 % 1020,1 hPa 0,0 l/m 0 min 0 min 0 W/m 9,7 km/h (2 Bft) 93,62 %
05.10.2018 03:48 9,6 C 8,9 C 8,9 C 93 % 1020,1 hPa 0,0 l/m 0 min 0 min 0 W/m 6,4 km/h (2 Bft) 93,62 %
05.10.2018 03:50 9,6 C 8,9 C 8,9 C 93 % 1020,0 hPa 0,0 l/m 0 min 0 min 0 W/m 6,4 km/h (2 Bft) 93,62 %
05.10.2018 03:52 9,6 C 8,9 C 8,9 C 93 % 1020,0 hPa 0,0 l/m 0 min 0 min 0 W/m 9,7 km/h (2 Bft) 97,92 %
05.10.2018 03:54 9,6 C 8,9 C 8,9 C 93 % 1020,0 hPa 0,0 l/m 0 min 0 min 0 W/m 9,7 km/h (2 Bft) 97,83 %
05.10.2018 03:56 9,6 C 8,9 C 8,9 C 93 % 1020,1 hPa 0,0 l/m 0 min 0 min 0 W/m 6,4 km/h (2 Bft) 98,00 %
05.10.2018 03:58 9,5 C 8,9 C 8,9 C 93 % 1020,0 hPa 0,0 l/m 0 min 0 min 0 W/m 6,4 km/h (2 Bft) 97,87 %
05.10.2018 04:00 9,5 C 8,9 C 8,9 C 93 % 1020,0 hPa 0,0 l/m 0 min 0 min 0 W/m 9,7 km/h (2 Bft) 97,87 %
05.10.2018 04:02 9,5 C 8,9 C 8,9 C 93 % 1019,9 hPa 0,0 l/m 0 min 0 min 0 W/m 3,2 km/h (1 Bft) 97,06 %
05.10.2018 04:04 9,5 C 8,9 C 8,9 C 93 % 1020,0 hPa 0,0 l/m 0 min 0 min 0 W/m 12,9 km/h (3 Bft) 100,00 %
05.10.2018 04:08 9,5 C 8,9 C 8,9 C 93 % 1020,0 hPa 0,0 l/m 0 min 0 min 0 W/m 9,7 km/h (2 Bft) 95,79 %
05.10.2018 04:10 9,4 C 8,9 C 8,9 C 93 % 1019,9 hPa 0,0 l/m 0 min 0 min 0 W/m 6,4 km/h (2 Bft) 100,00 %
05.10.2018 04:12 9,4 C 8,3 C 8,9 C 93 % 1019,9 hPa 0,0 l/m 0 min 0 min 0 W/m 9,7 km/h (2 Bft) 95,74 %
05.10.2018 04:14 9,4 C 8,3 C 8,9 C 93 % 1019,9 hPa 0,0 l/m 0 min 0 min 0 W/m 9,7 km/h (2 Bft) 97,87 %
05.10.2018 04:16 9,4 C 8,3 C 8,9 C 93 % 1019,8 hPa 0,0 l/m 0 min 0 min 0 W/m 9,7 km/h (2 Bft) 97,83 %
05.10.2018 04:18 9,4 C 8,3 C 8,9 C 93 % 1019,8 hPa 0,0 l/m 0 min 0 min 0 W/m 6,4 km/h (2 Bft) 97,87 %
05.10.2018 04:20 9,3 C 8,3 C 8,9 C 93 % 1019,8 hPa 0,0 l/m 0 min 0 min 0 W/m 6,4 km/h (2 Bft) 95,74 %
05.10.2018 04:22 9,3 C 8,3 C 8,9 C 93 % 1019,7 hPa 0,0 l/m 0 min 0 min 0 W/m 12,9 km/h (3 Bft) 97,92 %
05.10.2018 04:24 9,3 C 8,3 C 8,9 C 93 % 1019,8 hPa 0,0 l/m 0 min 0 min 0 W/m 6,4 km/h (2 Bft) 97,87 %
05.10.2018 04:26 9,3 C 8,3 C 8,9 C 93 % 1019,7 hPa 0,0 l/m 0 min 0 min 0 W/m 6,4 km/h (2 Bft) 97,87 %
05.10.2018 04:28 9,3 C 8,3 C 8,9 C 93 % 1019,7 hPa 0,0 l/m 0 min 0 min 0 W/m 3,2 km/h (1 Bft) 97,83 %
05.10.2018 04:30 9,3 C 8,3 C 8,9 C 93 % 1019,7 hPa 0,0 l/m 0 min 0 min 0 W/m 6,4 km/h (2 Bft) 97,87 %
05.10.2018 04:32 9,3 C 8,3 C 8,9 C 93 % 1019,7 hPa 0,0 l/m 0 min 0 min 0 W/m 9,7 km/h (2 Bft) 97,87 %
05.10.2018 04:34 9,2 C 8,3 C 8,9 C 93 % 1019,7 hPa 0,0 l/m 0 min 0 min 0 W/m 6,4 km/h (2 Bft) 97,87 %
05.10.2018 04:36 9,2 C 8,3 C 8,9 C 93 % 1019,7 hPa 0,0 l/m 0 min 0 min 0 W/m 12,9 km/h (3 Bft) 100,00 %
05.10.2018 04:38 9,2 C 8,3 C 8,9 C 93 % 1019,7 hPa 0,0 l/m 0 min 0 min 0 W/m 9,7 km/h (2 Bft) 100,00 %
05.10.2018 04:40 9,2 C 8,3 C 8,9 C 93 % 1019,7 hPa 0,0 l/m 0 min 0 min 0 W/m 6,4 km/h (2 Bft) 93,48 %
05.10.2018 04:42 9,2 C 8,3 C 8,9 C 93 % 1019,7 hPa 0,0 l/m 0 min 0 min 0 W/m 6,4 km/h (2 Bft) 97,87 %
05.10.2018 04:44 9,2 C 8,3 C 8,9 C 93 % 1019,6 hPa 0,0 l/m 0 min 0 min 0 W/m 3,2 km/h (1 Bft) 95,74 %
05.10.2018 04:46 9,2 C 8,3 C 8,9 C 93 % 1019,6 hPa 0,0 l/m 0 min 0 min 0 W/m 6,4 km/h (2 Bft) 97,87 %
05.10.2018 04:48 9,2 C 8,3 C 8,9 C 93 % 1019,6 hPa 0,0 l/m 0 min 0 min 0 W/m 3,2 km/h (1 Bft) 97,87 %
05.10.2018 04:50 9,1 C 8,3 C 8,9 C 93 % 1019,6 hPa 0,0 l/m 0 min 0 min 0 W/m 3,2 km/h (1 Bft) 95,74 %
05.10.2018 04:52 9,1 C 8,3 C 8,3 C 93 % 1019,6 hPa 0,0 l/m 0 min 0 min 0 W/m 3,2 km/h (1 Bft) 97,14 %
05.10.2018 04:54 9,1 C 8,3 C 8,3 C 93 % 1019,5 hPa 0,0 l/m 0 min 0 min 0 W/m 3,2 km/h (1 Bft) 97,87 %
05.10.2018 04:56 9,1 C 8,3 C 8,3 C 93 % 1019,5 hPa 0,0 l/m 0 min 0 min 0 W/m 6,4 km/h (2 Bft) 95,74 %
05.10.2018 04:58 9,1 C 8,3 C 8,3 C 93 % 1019,5 hPa 0,0 l/m 0 min 0 min 0 W/m 9,7 km/h (2 Bft) 97,87 %
05.10.2018 05:00 9,1 C 8,3 C 8,3 C 93 % 1019,5 hPa 0,0 l/m 0 min 0 min 0 W/m 6,4 km/h (2 Bft) 95,74 %
05.10.2018 05:02 9,0 C 8,3 C 8,3 C 93 % 1019,4 hPa 0,0 l/m 0 min 0 min 0 W/m 9,7 km/h (2 Bft) 97,87 %
05.10.2018 05:04 9,0 C 8,3 C 8,3 C 93 % 1019,5 hPa 0,0 l/m 0 min 0 min 0 W/m 6,4 km/h (2 Bft) 97,83 %
05.10.2018 05:08 9,0 C 8,3 C 8,3 C 93 % 1019,4 hPa 0,0 l/m 0 min 0 min 0 W/m 9,7 km/h (2 Bft) 96,81 %
05.10.2018 05:10 8,9 C 8,3 C 8,3 C 93 % 1019,4 hPa 0,0 l/m 0 min 0 min 0 W/m 9,7 km/h (2 Bft) 97,87 %
05.10.2018 05:12 8,9 C 8,3 C 8,3 C 93 % 1019,4 hPa 0,0 l/m 0 min 0 min 0 W/m 9,7 km/h (2 Bft) 97,87 %
05.10.2018 05:14 8,9 C 8,3 C 8,9 C 93 % 1019,4 hPa 0,0 l/m 0 min 0 min 0 W/m 6,4 km/h (2 Bft) 97,87 %
05.10.2018 05:16 8,9 C 8,3 C 8,9 C 93 % 1019,3 hPa 0,0 l/m 0 min 0 min 0 W/m 9,7 km/h (2 Bft) 97,83 %
05.10.2018 05:18 8,9 C 8,3 C 8,9 C 93 % 1019,3 hPa 0,0 l/m 0 min 0 min 0 W/m 6,4 km/h (2 Bft) 97,87 %
05.10.2018 05:20 8,9 C 8,3 C 8,9 C 93 % 1019,3 hPa 0,0 l/m 0 min 0 min 0 W/m 3,2 km/h (1 Bft) 97,87 %
05.10.2018 05:22 8,9 C 8,3 C 8,9 C 93 % 1019,4 hPa 0,0 l/m 0 min 0 min 0 W/m 6,4 km/h (2 Bft) 96,61 %
05.10.2018 05:24 8,9 C 8,3 C 8,9 C 93 % 1019,4 hPa 0,0 l/m 0 min 0 min 0 W/m 6,4 km/h (2 Bft) 97,14 %
05.10.2018 05:26 8,9 C 8,3 C 8,9 C 93 % 1019,3 hPa 0,0 l/m 0 min 0 min 0 W/m 6,4 km/h (2 Bft) 97,87 %
05.10.2018 05:28 8,9 C 8,3 C 8,3 C 93 % 1019,3 hPa 0,0 l/m 0 min 0 min 0 W/m 6,4 km/h (2 Bft) 97,83 %
05.10.2018 05:30 8,8 C 8,3 C 8,3 C 93 % 1019,3 hPa 0,0 l/m 0 min 0 min 0 W/m 3,2 km/h (1 Bft) 97,87 %
05.10.2018 05:32 8,8 C 8,3 C 8,3 C 93 % 1019,3 hPa 0,0 l/m 0 min 0 min 0 W/m 3,2 km/h (1 Bft) 100,00 %
05.10.2018 05:34 8,8 C 7,8 C 8,3 C 93 % 1019,3 hPa 0,0 l/m 0 min 0 min 0 W/m 0,0 km/h (0 Bft) 97,87 %
05.10.2018 05:36 8,8 C 8,3 C 8,3 C 93 % 1019,3 hPa 0,0 l/m 0 min 0 min 0 W/m 6,4 km/h (2 Bft) 97,87 %
05.10.2018 05:38 8,8 C 8,3 C 8,3 C 94 % 1019,3 hPa 0,0 l/m 0 min 0 min 0 W/m 6,4 km/h (2 Bft) 100,00 %
05.10.2018 05:40 8,8 C 8,3 C 8,3 C 94 % 1019,3 hPa 0,0 l/m 0 min 0 min 0 W/m 9,7 km/h (2 Bft) 95,65 %
05.10.2018 05:42 8,8 C 8,3 C 8,3 C 94 % 1019,2 hPa 0,0 l/m 0 min 0 min 0 W/m 3,2 km/h (1 Bft) 95,74 %
05.10.2018 05:44 8,8 C 8,3 C 8,3 C 94 % 1019,2 hPa 0,0 l/m 0 min 0 min 0 W/m 6,4 km/h (2 Bft) 97,87 %
05.10.2018 05:46 8,8 C 8,3 C 8,3 C 94 % 1019,2 hPa 0,0 l/m 0 min 0 min 0 W/m 6,4 km/h (2 Bft) 97,87 %
05.10.2018 05:48 8,8 C 8,3 C 8,3 C 94 % 1019,2 hPa 0,0 l/m 0 min 0 min 0 W/m 9,7 km/h (2 Bft) 95,74 %
05.10.2018 05:50 8,7 C 8,3 C 8,3 C 94 % 1019,1 hPa 0,0 l/m 0 min 0 min 0 W/m 9,7 km/h (2 Bft) 97,87 %
05.10.2018 05:52 8,8 C 8,3 C 8,3 C 94 % 1019,2 hPa 0,0 l/m 0 min 0 min 0 W/m 12,9 km/h (3 Bft) 95,65 %
05.10.2018 05:54 8,8 C 8,3 C 8,3 C 94 % 1019,1 hPa 0,0 l/m 0 min 0 min 0 W/m 12,9 km/h (3 Bft) 97,87 %
05.10.2018 05:56 8,7 C 8,3 C 8,3 C 94 % 1019,2 hPa 0,0 l/m 0 min 0 min 0 W/m 3,2 km/h (1 Bft) 97,87 %
05.10.2018 05:58 8,7 C 8,3 C 8,3 C 94 % 1019,2 hPa 0,0 l/m 0 min 0 min 0 W/m 9,7 km/h (2 Bft) 97,87 %
05.10.2018 06:00 8,7 C 8,3 C 8,3 C 94 % 1019,1 hPa 0,0 l/m 0 min 0 min 0 W/m 3,2 km/h (1 Bft) 97,87 %
05.10.2018 06:02 8,7 C 8,3 C 8,3 C 94 % 1019,1 hPa 0,0 l/m 0 min 0 min 0 W/m 6,4 km/h (2 Bft) 97,87 %
05.10.2018 06:04 8,7 C 8,3 C 8,3 C 94 % 1019,1 hPa 0,0 l/m 0 min 0 min 0 W/m 9,7 km/h (2 Bft) 97,83 %
05.10.2018 06:07 8,7 C 8,3 C 8,3 C 94 % 1019,1 hPa 0,0 l/m 0 min 0 min 0 W/m 9,7 km/h (2 Bft) 97,40 %
05.10.2018 06:08 8,7 C 8,3 C 8,3 C 94 % 1019,1 hPa 0,0 l/m 0 min 0 min 0 W/m 6,4 km/h (2 Bft) 95,65 %
05.10.2018 06:10 8,7 C 8,3 C 8,3 C 94 % 1019,1 hPa 0,0 l/m 0 min 0 min 0 W/m 6,4 km/h (2 Bft) 95,74 %
05.10.2018 06:12 8,7 C 8,3 C 8,3 C 94 % 1019,1 hPa 0,0 l/m 0 min 0 min 0 W/m 9,7 km/h (2 Bft) 97,87 %
05.10.2018 06:14 8,7 C 8,3 C 8,3 C 94 % 1019,0 hPa 0,0 l/m 0 min 0 min 0 W/m 6,4 km/h (2 Bft) 97,83 %
05.10.2018 06:16 8,7 C 8,3 C 8,3 C 94 % 1018,9 hPa 0,0 l/m 0 min 0 min 0 W/m 9,7 km/h (2 Bft) 97,87 %
05.10.2018 06:18 8,7 C 8,3 C 8,3 C 94 % 1019,0 hPa 0,0 l/m 0 min 0 min 0 W/m 6,4 km/h (2 Bft) 95,74 %
05.10.2018 06:20 8,7 C 8,3 C 8,3 C 94 % 1018,9 hPa 0,0 l/m 0 min 0 min 0 W/m 3,2 km/h (1 Bft) 97,87 %
05.10.2018 06:22 8,7 C 8,3 C 8,3 C 94 % 1018,9 hPa 0,0 l/m 0 min 0 min 0 W/m 3,2 km/h (1 Bft) 97,87 %
05.10.2018 06:24 8,7 C 8,3 C 8,3 C 94 % 1018,9 hPa 0,0 l/m 0 min 0 min 0 W/m 6,4 km/h (2 Bft) 100,00 %
05.10.2018 06:26 8,7 C 8,3 C 8,3 C 94 % 1018,8 hPa 0,0 l/m 0 min 0 min 0 W/m 6,4 km/h (2 Bft) 100,00 %
05.10.2018 06:28 8,7 C 8,3 C 8,3 C 94 % 1018,8 hPa 0,0 l/m 0 min 0 min 0 W/m 3,2 km/h (1 Bft) 97,87 %
05.10.2018 06:30 8,7 C 8,3 C 8,3 C 94 % 1018,8 hPa 0,0 l/m 0 min 0 min 0 W/m 3,2 km/h (1 Bft) 100,00 %
05.10.2018 06:32 8,7 C 8,3 C 8,3 C 94 % 1018,8 hPa 0,0 l/m 0 min 0 min 0 W/m 6,4 km/h (2 Bft) 100,00 %
05.10.2018 06:34 8,7 C 8,3 C 8,3 C 94 % 1018,8 hPa 0,0 l/m 0 min 0 min 0 W/m 3,2 km/h (1 Bft) 100,00 %
05.10.2018 06:36 8,7 C 8,3 C 8,3 C 94 % 1018,7 hPa 0,0 l/m 0 min 0 min 0 W/m 6,4 km/h (2 Bft) 100,00 %
05.10.2018 06:38 8,7 C 8,3 C 8,3 C 94 % 1018,7 hPa 0,0 l/m 0 min 0 min 0 W/m 6,4 km/h (2 Bft) 100,00 %
05.10.2018 06:40 8,7 C 8,3 C 8,3 C 94 % 1018,6 hPa 0,0 l/m 0 min 0 min 0 W/m 6,4 km/h (2 Bft) 100,00 %
05.10.2018 06:42 8,7 C 8,3 C 8,3 C 94 % 1018,6 hPa 0,0 l/m 0 min 0 min 0 W/m 6,4 km/h (2 Bft) 100,00 %
05.10.2018 06:44 8,7 C 8,3 C 8,3 C 94 % 1018,5 hPa 0,0 l/m 0 min 0 min 0 W/m 9,7 km/h (2 Bft) 100,00 %
05.10.2018 06:46 8,7 C 8,3 C 8,3 C 94 % 1018,6 hPa 0,0 l/m 0 min 0 min 0 W/m 9,7 km/h (2 Bft) 100,00 %
05.10.2018 06:48 8,7 C 8,3 C 8,3 C 94 % 1018,5 hPa 0,0 l/m 0 min 0 min 0 W/m 3,2 km/h (1 Bft) 100,00 %
05.10.2018 06:50 8,7 C 8,3 C 8,3 C 94 % 1018,5 hPa 0,0 l/m 0 min 0 min 0 W/m 9,7 km/h (2 Bft) 97,87 %
05.10.2018 06:52 8,7 C 8,3 C 8,3 C 94 % 1018,5 hPa 0,0 l/m 0 min 0 min 0 W/m 6,4 km/h (2 Bft) 97,92 %
05.10.2018 06:54 8,7 C 8,3 C 8,3 C 94 % 1018,5 hPa 0,0 l/m 0 min 0 min 0 W/m 6,4 km/h (2 Bft) 100,00 %
05.10.2018 06:56 8,7 C 8,3 C 8,3 C 94 % 1018,5 hPa 0,0 l/m 0 min 0 min 0 W/m 3,2 km/h (1 Bft) 100,00 %
05.10.2018 06:58 8,7 C 8,3 C 8,3 C 94 % 1018,5 hPa 0,0 l/m 0 min 0 min 0 W/m 6,4 km/h (2 Bft) 97,87 %
05.10.2018 07:00 8,7 C 8,3 C 8,3 C 94 % 1018,6 hPa 0,0 l/m 0 min 0 min 0 W/m 6,4 km/h (2 Bft) 97,83 %
05.10.2018 07:02 8,7 C 8,3 C 8,3 C 94 % 1018,6 hPa 0,0 l/m 0 min 0 min 0 W/m 3,2 km/h (1 Bft) 97,87 %
05.10.2018 07:04 8,7 C 8,3 C 8,3 C 94 % 1018,6 hPa 0,0 l/m 0 min 0 min 0 W/m 6,4 km/h (2 Bft) 100,00 %
05.10.2018 07:06 8,7 C 7,8 C 8,3 C 94 % 1018,6 hPa 0,0 l/m 0 min 0 min 0 W/m 3,2 km/h (1 Bft) 100,00 %
05.10.2018 07:08 8,7 C 7,8 C 8,3 C 94 % 1018,6 hPa 0,0 l/m 0 min 0 min 0 W/m 6,4 km/h (2 Bft) 100,00 %
05.10.2018 07:10 8,7 C 7,8 C 7,8 C 94 % 1018,6 hPa 0,0 l/m 0 min 0 min 0 W/m 3,2 km/h (1 Bft) 97,87 %
05.10.2018 07:12 8,6 C 7,8 C 7,8 C 94 % 1018,5 hPa 0,0 l/m 0 min 0 min 0 W/m 6,4 km/h (2 Bft) 100,00 %
05.10.2018 07:14 8,6 C 7,8 C 7,8 C 94 % 1018,5 hPa 0,0 l/m 0 min 0 min 0 W/m 6,4 km/h (2 Bft) 100,00 %
05.10.2018 07:16 8,6 C 7,8 C 7,8 C 94 % 1018,6 hPa 0,0 l/m 0 min 0 min 0 W/m 3,2 km/h (1 Bft) 100,00 %
05.10.2018 07:18 8,6 C 7,8 C 7,8 C 94 % 1018,6 hPa 0,0 l/m 0 min 0 min 0 W/m 3,2 km/h (1 Bft) 100,00 %
05.10.2018 07:20 8,6 C 7,8 C 7,8 C 94 % 1018,5 hPa 0,0 l/m 0 min 0 min 0 W/m 3,2 km/h (1 Bft) 100,00 %
05.10.2018 07:22 8,6 C 7,8 C 7,8 C 94 % 1018,5 hPa 0,0 l/m 0 min 0 min 0 W/m 3,2 km/h (1 Bft) 100,00 %
05.10.2018 07:24 8,6 C 7,8 C 7,8 C 94 % 1018,5 hPa 0,0 l/m 0 min 0 min 0 W/m 3,2 km/h (1 Bft) 100,00 %
05.10.2018 07:26 8,5 C 7,8 C 7,8 C 94 % 1018,6 hPa 0,0 l/m 0 min 0 min 0 W/m 9,7 km/h (2 Bft) 100,00 %
05.10.2018 07:28 8,5 C 7,8 C 7,8 C 94 % 1018,6 hPa 0,0 l/m 0 min 0 min 0 W/m 6,4 km/h (2 Bft) 95,74 %
05.10.2018 07:30 8,5 C 7,8 C 7,8 C 94 % 1018,5 hPa 0,0 l/m 0 min 0 min 0 W/m 6,4 km/h (2 Bft) 89,36 %
05.10.2018 07:32 8,5 C 7,8 C 7,8 C 94 % 1018,5 hPa 0,0 l/m 0 min 0 min 0 W/m 6,4 km/h (2 Bft) 93,62 %
05.10.2018 07:34 8,5 C 7,8 C 7,8 C 94 % 1018,4 hPa 0,0 l/m 0 min 0 min 0 W/m 9,7 km/h (2 Bft) 95,74 %
05.10.2018 07:36 8,4 C 7,8 C 7,8 C 94 % 1018,5 hPa 0,0 l/m 0 min 0 min 0 W/m 9,7 km/h (2 Bft) 95,74 %
05.10.2018 07:38 8,4 C 7,8 C 7,8 C 94 % 1018,5 hPa 0,0 l/m 0 min 0 min 0 W/m 9,7 km/h (2 Bft) 93,62 %
05.10.2018 07:40 8,4 C 7,8 C 7,8 C 94 % 1018,5 hPa 0,0 l/m 0 min 0 min 3 W/m 9,7 km/h (2 Bft) 95,74 %
05.10.2018 07:42 8,4 C 7,8 C 8,3 C 94 % 1018,4 hPa 0,0 l/m 0 min 0 min 5 W/m 12,9 km/h (3 Bft) 91,49 %
05.10.2018 07:44 8,4 C 7,8 C 8,3 C 94 % 1018,4 hPa 0,0 l/m 0 min 0 min 5 W/m 9,7 km/h (2 Bft) 95,74 %
05.10.2018 07:46 8,4 C 7,8 C 8,3 C 94 % 1018,4 hPa 0,0 l/m 0 min 0 min 7 W/m 6,4 km/h (2 Bft) 95,65 %
05.10.2018 07:48 8,4 C 7,8 C 7,8 C 94 % 1018,5 hPa 0,0 l/m 0 min 0 min 7 W/m 6,4 km/h (2 Bft) 93,62 %
05.10.2018 07:50 8,4 C 7,8 C 7,8 C 94 % 1018,4 hPa 0,0 l/m 0 min 0 min 8 W/m 6,4 km/h (2 Bft) 95,74 %
05.10.2018 07:52 8,4 C 7,8 C 7,8 C 94 % 1018,4 hPa 0,0 l/m 0 min 0 min 9 W/m 12,9 km/h (3 Bft) 95,83 %
05.10.2018 07:54 8,4 C 7,8 C 7,8 C 94 % 1018,4 hPa 0,0 l/m 0 min 0 min 9 W/m 9,7 km/h (2 Bft) 93,62 %
05.10.2018 07:56 8,4 C 7,8 C 7,8 C 94 % 1018,4 hPa 0,0 l/m 0 min 0 min 11 W/m 6,4 km/h (2 Bft) 95,74 %
05.10.2018 07:58 8,4 C 7,8 C 7,8 C 94 % 1018,4 hPa 0,0 l/m 0 min 0 min 11 W/m 6,4 km/h (2 Bft) 95,65 %
05.10.2018 08:00 8,4 C 7,8 C 7,8 C 94 % 1018,4 hPa 0,0 l/m 0 min 0 min 11 W/m 9,7 km/h (2 Bft) 91,49 %
05.10.2018 08:02 8,4 C 7,8 C 7,8 C 94 % 1018,4 hPa 0,0 l/m 0 min 0 min 12 W/m 6,4 km/h (2 Bft) 93,62 %
05.10.2018 08:04 8,4 C 7,8 C 7,8 C 94 % 1018,3 hPa 0,0 l/m 0 min 0 min 12 W/m 9,7 km/h (2 Bft) 93,62 %
05.10.2018 08:06 8,4 C 7,8 C 7,8 C 94 % 1018,3 hPa 0,0 l/m 0 min 0 min 14 W/m 6,4 km/h (2 Bft) 95,74 %
05.10.2018 08:08 8,4 C 7,8 C 7,8 C 94 % 1018,4 hPa 0,0 l/m 0 min 0 min 14 W/m 9,7 km/h (2 Bft) 95,74 %
05.10.2018 08:10 8,4 C 7,8 C 8,3 C 94 % 1018,4 hPa 0,0 l/m 0 min 0 min 16 W/m 3,2 km/h (1 Bft) 95,65 %
05.10.2018 08:12 8,4 C 7,8 C 8,3 C 94 % 1018,4 hPa 0,0 l/m 0 min 0 min 16 W/m 9,7 km/h (2 Bft) 89,36 %
05.10.2018 08:14 8,4 C 7,8 C 8,3 C 94 % 1018,4 hPa 0,0 l/m 0 min 0 min 16 W/m 9,7 km/h (2 Bft) 95,74 %
05.10.2018 08:16 8,4 C 8,3 C 8,3 C 94 % 1018,4 hPa 0,0 l/m 0 min 0 min 16 W/m 9,7 km/h (2 Bft) 95,74 %
05.10.2018 08:18 8,4 C 8,3 C 8,3 C 94 % 1018,4 hPa 0,0 l/m 0 min 0 min 18 W/m 16,1 km/h (3 Bft) 95,74 %
05.10.2018 08:20 8,4 C 8,3 C 8,3 C 94 % 1018,3 hPa 0,0 l/m 0 min 0 min 18 W/m 16,1 km/h (3 Bft) 95,74 %
05.10.2018 08:22 8,4 C 8,3 C 8,3 C 94 % 1018,4 hPa 0,0 l/m 0 min 0 min 18 W/m 12,9 km/h (3 Bft) 95,74 %
05.10.2018 08:24 8,4 C 8,3 C 8,3 C 94 % 1018,4 hPa 0,0 l/m 0 min 0 min 19 W/m 16,1 km/h (3 Bft) 93,62 %
05.10.2018 08:26 8,4 C 8,3 C 8,3 C 94 % 1018,4 hPa 0,0 l/m 0 min 0 min 19 W/m 12,9 km/h (3 Bft) 95,74 %
05.10.2018 08:28 8,4 C 8,3 C 8,3 C 94 % 1018,4 hPa 0,0 l/m 0 min 0 min 20 W/m 9,7 km/h (2 Bft) 95,74 %
05.10.2018 08:30 8,5 C 8,3 C 8,3 C 94 % 1018,4 hPa 0,0 l/m 0 min 0 min 21 W/m 9,7 km/h (2 Bft) 93,62 %
05.10.2018 08:32 8,5 C 8,3 C 8,3 C 94 % 1018,4 hPa 0,0 l/m 0 min 0 min 21 W/m 6,4 km/h (2 Bft) 93,48 %
05.10.2018 08:34 8,5 C 8,3 C 8,3 C 94 % 1018,5 hPa 0,0 l/m 0 min 0 min 21 W/m 6,4 km/h (2 Bft) 97,87 %
05.10.2018 08:36 8,6 C 8,9 C 8,3 C 94 % 1018,4 hPa 0,0 l/m 0 min 0 min 23 W/m 6,4 km/h (2 Bft) 97,87 %
05.10.2018 08:38 8,6 C 8,3 C 8,3 C 94 % 1018,4 hPa 0,0 l/m 0 min 0 min 23 W/m 9,7 km/h (2 Bft) 97,87 %
05.10.2018 08:40 8,6 C 8,9 C 8,3 C 94 % 1018,4 hPa 0,0 l/m 0 min 0 min 23 W/m 9,7 km/h (2 Bft) 97,87 %
05.10.2018 08:42 8,6 C 8,9 C 8,3 C 94 % 1018,4 hPa 0,0 l/m 0 min 0 min 25 W/m 16,1 km/h (3 Bft) 95,74 %
05.10.2018 08:44 8,7 C 8,9 C 8,3 C 94 % 1018,4 hPa 0,0 l/m 0 min 0 min 25 W/m 12,9 km/h (3 Bft) 95,74 %
05.10.2018 08:46 8,7 C 8,9 C 8,3 C 94 % 1018,4 hPa 0,0 l/m 0 min 0 min 25 W/m 19,3 km/h (3 Bft) 95,65 %
05.10.2018 08:48 8,7 C 8,9 C 8,3 C 94 % 1018,4 hPa 0,0 l/m 0 min 0 min 25 W/m 16,1 km/h (3 Bft) 97,87 %
05.10.2018 08:50 8,7 C 8,9 C 8,3 C 94 % 1018,4 hPa 0,0 l/m 0 min 0 min 26 W/m 19,3 km/h (3 Bft) 97,87 %
05.10.2018 08:52 8,7 C 8,9 C 8,9 C 94 % 1018,4 hPa 0,0 l/m 0 min 0 min 26 W/m 12,9 km/h (3 Bft) 95,74 %
05.10.2018 08:54 8,8 C 8,9 C 8,9 C 94 % 1018,4 hPa 0,0 l/m 0 min 0 min 26 W/m 16,1 km/h (3 Bft) 97,87 %
05.10.2018 08:56 8,8 C 8,9 C 8,9 C 94 % 1018,5 hPa 0,0 l/m 0 min 0 min 28 W/m 12,9 km/h (3 Bft) 95,65 %
05.10.2018 08:58 8,8 C 8,9 C 8,9 C 94 % 1018,4 hPa 0,0 l/m 0 min 0 min 28 W/m 12,9 km/h (3 Bft) 100,00 %
05.10.2018 09:00 8,8 C 8,9 C 8,9 C 94 % 1018,4 hPa 0,0 l/m 0 min 0 min 28 W/m 9,7 km/h (2 Bft) 100,00 %
05.10.2018 09:02 8,9 C 9,4 C 8,9 C 94 % 1018,4 hPa 0,0 l/m 0 min 0 min 28 W/m 9,7 km/h (2 Bft) 97,37 %
05.10.2018 09:04 8,9 C 9,4 C 8,9 C 94 % 1018,5 hPa 0,0 l/m 0 min 0 min 29 W/m 12,9 km/h (3 Bft) 100,00 %
05.10.2018 09:06 8,9 C 9,4 C 8,9 C 94 % 1018,5 hPa 0,0 l/m 0 min 0 min 30 W/m 19,3 km/h (3 Bft) 100,00 %
05.10.2018 09:08 9,0 C 9,4 C 8,9 C 94 % 1018,5 hPa 0,0 l/m 0 min 0 min 30 W/m 12,9 km/h (3 Bft) 100,00 %
05.10.2018 09:10 9,0 C 9,4 C 8,9 C 94 % 1018,5 hPa 0,0 l/m 0 min 0 min 31 W/m 19,3 km/h (3 Bft) 100,00 %
05.10.2018 09:12 9,1 C 9,4 C 8,9 C 94 % 1018,4 hPa 0,0 l/m 0 min 0 min 32 W/m 12,9 km/h (3 Bft) 100,00 %
05.10.2018 09:14 9,1 C 9,4 C 8,9 C 94 % 1018,4 hPa 0,0 l/m 0 min 0 min 32 W/m 9,7 km/h (2 Bft) 100,00 %
05.10.2018 09:16 9,2 C 9,4 C 8,9 C 94 % 1018,4 hPa 0,0 l/m 0 min 0 min 33 W/m 12,9 km/h (3 Bft) 100,00 %
05.10.2018 09:18 9,2 C 9,4 C 8,9 C 94 % 1018,5 hPa 0,0 l/m 0 min 0 min 33 W/m 16,1 km/h (3 Bft) 100,00 %
05.10.2018 09:20 9,2 C 10,0 C 8,9 C 94 % 1018,4 hPa 0,0 l/m 0 min 0 min 33 W/m 19,3 km/h (3 Bft) 97,87 %
05.10.2018 09:22 9,3 C 10,0 C 8,9 C 94 % 1018,4 hPa 0,0 l/m 0 min 0 min 34 W/m 12,9 km/h (3 Bft) 100,00 %
05.10.2018 09:24 9,3 C 10,0 C 8,9 C 94 % 1018,4 hPa 0,0 l/m 0 min 0 min 35 W/m 19,3 km/h (3 Bft) 100,00 %
05.10.2018 09:26 9,4 C 10,0 C 9,4 C 94 % 1018,4 hPa 0,0 l/m 0 min 0 min 35 W/m 12,9 km/h (3 Bft) 100,00 %
05.10.2018 09:28 9,4 C 10,0 C 9,4 C 94 % 1018,4 hPa 0,0 l/m 0 min 0 min 35 W/m 9,7 km/h (2 Bft) 100,00 %
05.10.2018 09:30 9,5 C 10,0 C 9,4 C 94 % 1018,4 hPa 0,0 l/m 0 min 0 min 35 W/m 19,3 km/h (3 Bft) 100,00 %
05.10.2018 09:32 9,6 C 10,6 C 9,4 C 94 % 1018,4 hPa 0,0 l/m 0 min 0 min 37 W/m 12,9 km/h (3 Bft) 100,00 %
05.10.2018 09:34 9,6 C 10,6 C 9,4 C 94 % 1018,4 hPa 0,0 l/m 0 min 0 min 37 W/m 12,9 km/h (3 Bft) 100,00 %
05.10.2018 09:36 9,7 C 10,6 C 9,4 C 94 % 1018,5 hPa 0,0 l/m 0 min 0 min 37 W/m 9,7 km/h (2 Bft) 100,00 %
05.10.2018 09:38 9,7 C 10,6 C 9,4 C 94 % 1018,4 hPa 0,0 l/m 0 min 0 min 38 W/m 12,9 km/h (3 Bft) 100,00 %
05.10.2018 09:40 9,7 C 10,6 C 9,4 C 94 % 1018,4 hPa 0,0 l/m 0 min 0 min 39 W/m 9,7 km/h (2 Bft) 100,00 %
05.10.2018 09:42 9,8 C 10,6 C 9,4 C 94 % 1018,5 hPa 0,0 l/m 0 min 0 min 56 W/m 12,9 km/h (3 Bft) 100,00 %
05.10.2018 09:44 9,8 C 10,6 C 9,4 C 94 % 1018,5 hPa 0,0 l/m 2 min 0 min 150 W/m 12,9 km/h (3 Bft) 100,00 %
05.10.2018 09:46 9,9 C 11,1 C 9,4 C 94 % 1018,4 hPa 0,0 l/m 2 min 0 min 167 W/m 16,1 km/h (3 Bft) 93,62 %
05.10.2018 09:48 10,0 C 11,1 C 9,4 C 94 % 1018,5 hPa 0,0 l/m 2 min 0 min 172 W/m 16,1 km/h (3 Bft) 100,00 %
05.10.2018 09:50 10,0 C 11,1 C 9,4 C 94 % 1018,5 hPa 0,0 l/m 2 min 0 min 176 W/m 19,3 km/h (3 Bft) 100,00 %
05.10.2018 09:52 10,1 C 11,1 C 10,0 C 94 % 1018,4 hPa 0,0 l/m 2 min 0 min 180 W/m 12,9 km/h (3 Bft) 97,87 %
05.10.2018 09:54 10,2 C 11,7 C 10,0 C 94 % 1018,4 hPa 0,0 l/m 2 min 0 min 183 W/m 9,7 km/h (2 Bft) 100,00 %
05.10.2018 09:56 10,2 C 11,7 C 10,0 C 94 % 1018,5 hPa 0,0 l/m 0 min 0 min 139 W/m 16,1 km/h (3 Bft) 97,83 %
05.10.2018 09:58 10,3 C 12,8 C 10,0 C 93 % 1018,4 hPa 0,0 l/m 0 min 0 min 137 W/m 12,9 km/h (3 Bft) 100,00 %
05.10.2018 10:00 10,3 C 13,9 C 10,0 C 93 % 1018,4 hPa 0,0 l/m 0 min 0 min 84 W/m 12,9 km/h (3 Bft) 100,00 %
05.10.2018 10:02 10,4 C 13,9 C 10,0 C 93 % 1018,5 hPa 0,0 l/m 0 min 0 min 51 W/m 16,1 km/h (3 Bft) 100,00 %
05.10.2018 10:04 10,5 C 13,9 C 10,0 C 93 % 1018,5 hPa 0,0 l/m 0 min 0 min 82 W/m 16,1 km/h (3 Bft) 100,00 %
05.10.2018 10:08 10,7 C 15,0 C 10,0 C 93 % 1018,5 hPa 0,0 l/m 0 min 0 min 49 W/m 12,9 km/h (3 Bft) 97,85 %
05.10.2018 10:10 10,9 C 16,1 C 10,0 C 93 % 1018,4 hPa 0,0 l/m 0 min 0 min 45 W/m 9,7 km/h (2 Bft) 100,00 %
05.10.2018 10:12 11,0 C 16,7 C 10,0 C 93 % 1018,5 hPa 0,0 l/m 0 min 0 min 45 W/m 16,1 km/h (3 Bft) 97,87 %
05.10.2018 10:14 11,2 C 17,8 C 10,6 C 93 % 1018,4 hPa 0,0 l/m 0 min 0 min 46 W/m 16,1 km/h (3 Bft) 97,87 %
05.10.2018 10:16 11,3 C 18,3 C 10,6 C 92 % 1018,5 hPa 0,0 l/m 0 min 0 min 45 W/m 16,1 km/h (3 Bft) 95,74 %
05.10.2018 10:18 11,4 C 18,3 C 10,6 C 92 % 1018,4 hPa 0,0 l/m 0 min 0 min 46 W/m 16,1 km/h (3 Bft) 97,83 %
05.10.2018 10:20 11,6 C 18,3 C 10,6 C 91 % 1018,5 hPa 0,0 l/m 0 min 0 min 47 W/m 12,9 km/h (3 Bft) 95,74 %
05.10.2018 10:22 11,8 C 19,4 C 10,6 C 91 % 1018,5 hPa 0,0 l/m 0 min 0 min 46 W/m 12,9 km/h (3 Bft) 97,87 %
05.10.2018 10:24 11,9 C 19,4 C 10,6 C 91 % 1018,5 hPa 0,0 l/m 0 min 0 min 47 W/m 12,9 km/h (3 Bft) 97,87 %
05.10.2018 10:26 12,2 C 20,6 C 10,6 C 90 % 1018,4 hPa 0,0 l/m 0 min 0 min 46 W/m 12,9 km/h (3 Bft) 97,87 %
05.10.2018 10:28 12,3 C 20,6 C 10,6 C 90 % 1018,4 hPa 0,0 l/m 0 min 0 min 46 W/m 12,9 km/h (3 Bft) 97,87 %
05.10.2018 10:30 12,5 C 21,1 C 10,6 C 89 % 1018,3 hPa 0,0 l/m 0 min 0 min 46 W/m 16,1 km/h (3 Bft) 97,83 %
05.10.2018 10:32 12,7 C 20,6 C 11,1 C 89 % 1018,3 hPa 0,0 l/m 0 min 0 min 47 W/m 16,1 km/h (3 Bft) 97,87 %
05.10.2018 10:34 12,8 C 20,0 C 11,1 C 88 % 1018,4 hPa 0,0 l/m 0 min 0 min 50 W/m 12,9 km/h (3 Bft) 95,74 %
05.10.2018 10:36 13,1 C 20,0 C 11,1 C 87 % 1018,3 hPa 0,0 l/m 0 min 0 min 83 W/m 16,1 km/h (3 Bft) 98,11 %
05.10.2018 10:38 13,2 C 20,6 C 11,1 C 86 % 1018,3 hPa 0,0 l/m 0 min 0 min 146 W/m 12,9 km/h (3 Bft) 95,74 %
05.10.2018 10:40 13,4 C 20,0 C 11,1 C 85 % 1018,3 hPa 0,0 l/m 0 min 0 min 198 W/m 19,3 km/h (3 Bft) 97,87 %
05.10.2018 10:42 13,6 C 19,4 C 11,7 C 84 % 1018,3 hPa 0,0 l/m 2 min 0 min 257 W/m 16,1 km/h (3 Bft) 97,87 %
05.10.2018 10:44 13,7 C 20,0 C 11,7 C 83 % 1018,3 hPa 0,0 l/m 2 min 0 min 310 W/m 22,5 km/h (4 Bft) 97,83 %
05.10.2018 10:46 13,9 C 20,6 C 11,7 C 83 % 1018,2 hPa 0,0 l/m 2 min 0 min 320 W/m 19,3 km/h (3 Bft) 97,87 %
05.10.2018 10:48 14,1 C 20,0 C 11,7 C 82 % 1018,2 hPa 0,0 l/m 2 min 0 min 326 W/m 19,3 km/h (3 Bft) 95,74 %
05.10.2018 10:50 14,2 C 20,6 C 11,7 C 81 % 1018,2 hPa 0,0 l/m 2 min 0 min 331 W/m 16,1 km/h (3 Bft) 95,74 %
05.10.2018 10:52 14,3 C 21,1 C 11,7 C 81 % 1018,2 hPa 0,0 l/m 2 min 0 min 338 W/m 16,1 km/h (3 Bft) 97,87 %
05.10.2018 10:54 14,4 C 21,1 C 11,7 C 80 % 1018,2 hPa 0,0 l/m 2 min 0 min 308 W/m 16,1 km/h (3 Bft) 97,83 %
05.10.2018 10:56 14,6 C 21,7 C 11,7 C 80 % 1018,1 hPa 0,0 l/m 2 min 0 min 338 W/m 12,9 km/h (3 Bft) 97,87 %
05.10.2018 10:58 14,7 C 21,7 C 11,7 C 80 % 1018,2 hPa 0,0 l/m 2 min 0 min 347 W/m 16,1 km/h (3 Bft) 97,87 %
05.10.2018 11:00 14,8 C 21,1 C 11,7 C 79 % 1018,1 hPa 0,0 l/m 2 min 0 min 340 W/m 16,1 km/h (3 Bft) 97,87 %
05.10.2018 11:02 15,0 C 21,1 C 12,2 C 78 % 1018,0 hPa 0,0 l/m 2 min 0 min 349 W/m 16,1 km/h (3 Bft) 97,87 %
05.10.2018 11:04 15,1 C 21,1 C 12,2 C 78 % 1018,1 hPa 0,0 l/m 2 min 0 min 333 W/m 16,1 km/h (3 Bft) 97,87 %
05.10.2018 11:06 15,2 C 21,1 C 12,2 C 77 % 1018,1 hPa 0,0 l/m 0 min 0 min 158 W/m 19,3 km/h (3 Bft) 95,74 %
05.10.2018 11:08 15,3 C 22,2 C 12,2 C 77 % 1018,0 hPa 0,0 l/m 2 min 0 min 241 W/m 12,9 km/h (3 Bft) 95,74 %
05.10.2018 11:10 15,4 C 22,2 C 12,2 C 77 % 1018,0 hPa 0,0 l/m 2 min 0 min 366 W/m 16,1 km/h (3 Bft) 100,00 %
05.10.2018 11:12 15,6 C 22,2 C 12,2 C 77 % 1017,9 hPa 0,0 l/m 2 min 0 min 352 W/m 12,9 km/h (3 Bft) 100,00 %
05.10.2018 11:14 15,7 C 23,3 C 12,2 C 77 % 1017,9 hPa 0,0 l/m 2 min 0 min 381 W/m 9,7 km/h (2 Bft) 97,87 %
05.10.2018 11:16 15,8 C 23,3 C 12,2 C 76 % 1017,9 hPa 0,0 l/m 2 min 0 min 371 W/m 9,7 km/h (2 Bft) 97,83 %
05.10.2018 11:18 15,9 C 23,9 C 12,2 C 76 % 1017,9 hPa 0,0 l/m 2 min 0 min 288 W/m 9,7 km/h (2 Bft) 97,87 %
05.10.2018 11:20 16,1 C 23,3 C 12,8 C 76 % 1017,8 hPa 0,0 l/m 2 min 0 min 276 W/m 6,4 km/h (2 Bft) 100,00 %
05.10.2018 11:22 16,2 C 22,8 C 12,8 C 75 % 1017,8 hPa 0,0 l/m 2 min 0 min 237 W/m 12,9 km/h (3 Bft) 100,00 %
05.10.2018 11:24 16,4 C 23,3 C 12,8 C 75 % 1017,8 hPa 0,0 l/m 0 min 0 min 220 W/m 19,3 km/h (3 Bft) 100,00 %
05.10.2018 11:26 16,5 C 23,9 C 12,8 C 74 % 1017,8 hPa 0,0 l/m 2 min 0 min 261 W/m 9,7 km/h (2 Bft) 100,00 %
05.10.2018 11:28 16,6 C 23,3 C 12,8 C 74 % 1017,8 hPa 0,0 l/m 2 min 0 min 284 W/m 16,1 km/h (3 Bft) 100,00 %
05.10.2018 11:30 16,8 C 22,8 C 13,3 C 74 % 1017,7 hPa 0,0 l/m 2 min 0 min 352 W/m 16,1 km/h (3 Bft) 97,87 %
05.10.2018 11:32 16,9 C 23,9 C 13,3 C 73 % 1017,7 hPa 0,0 l/m 2 min 0 min 400 W/m 9,7 km/h (2 Bft) 100,00 %
05.10.2018 11:34 17,0 C 25,0 C 13,3 C 73 % 1017,7 hPa 0,0 l/m 0 min 0 min 228 W/m 9,7 km/h (2 Bft) 100,00 %
05.10.2018 11:36 17,1 C 25,0 C 13,3 C 73 % 1017,6 hPa 0,0 l/m 0 min 0 min 171 W/m 12,9 km/h (3 Bft) 100,00 %
05.10.2018 11:38 17,2 C 25,6 C 12,8 C 73 % 1017,6 hPa 0,0 l/m 0 min 0 min 223 W/m 12,9 km/h (3 Bft) 100,00 %
05.10.2018 11:40 17,3 C 25,0 C 12,8 C 72 % 1017,5 hPa 0,0 l/m 0 min 0 min 82 W/m 12,9 km/h (3 Bft) 100,00 %
05.10.2018 11:42 17,4 C 24,4 C 13,3 C 71 % 1017,5 hPa 0,0 l/m 0 min 0 min 61 W/m 16,1 km/h (3 Bft) 97,83 %
05.10.2018 11:44 17,6 C 24,4 C 13,3 C 71 % 1017,6 hPa 0,0 l/m 0 min 0 min 57 W/m 12,9 km/h (3 Bft) 100,00 %
05.10.2018 11:46 17,6 C 23,9 C 13,3 C 70 % 1017,6 hPa 0,0 l/m 0 min 0 min 64 W/m 12,9 km/h (3 Bft) 100,00 %
05.10.2018 11:48 17,7 C 24,4 C 13,9 C 70 % 1017,6 hPa 0,0 l/m 0 min 0 min 73 W/m 16,1 km/h (3 Bft) 100,00 %
05.10.2018 11:50 17,8 C 25,0 C 13,9 C 70 % 1017,4 hPa 0,0 l/m 0 min 0 min 56 W/m 12,9 km/h (3 Bft) 98,31 %
05.10.2018 11:52 17,9 C 25,0 C 13,3 C 69 % 1017,3 hPa 0,0 l/m 0 min 0 min 56 W/m 12,9 km/h (3 Bft) 100,00 %
05.10.2018 11:54 18,0 C 26,1 C 13,3 C 70 % 1017,3 hPa 0,0 l/m 0 min 0 min 91 W/m 9,7 km/h (2 Bft) 100,00 %
05.10.2018 11:56 18,1 C 26,7 C 13,3 C 70 % 1017,2 hPa 0,0 l/m 0 min 0 min 72 W/m 6,4 km/h (2 Bft) 97,83 %
05.10.2018 11:58 18,2 C 25,0 C 13,9 C 69 % 1017,2 hPa 0,0 l/m 0 min 0 min 126 W/m 12,9 km/h (3 Bft) 100,00 %
05.10.2018 12:00 18,3 C 25,6 C 13,9 C 68 % 1017,2 hPa 0,0 l/m 0 min 0 min 144 W/m 12,9 km/h (3 Bft) 100,00 %
05.10.2018 12:02 18,3 C 25,0 C 13,9 C 68 % 1017,2 hPa 0,0 l/m 0 min 0 min 200 W/m 12,9 km/h (3 Bft) 100,00 %
05.10.2018 12:04 18,4 C 24,4 C 13,9 C 67 % 1017,1 hPa 0,0 l/m 2 min 0 min 410 W/m 16,1 km/h (3 Bft) 97,87 %
05.10.2018 12:07 18,5 C 25,6 C 13,9 C 67 % 1017,0 hPa 0,0 l/m 3 min 0 min 279 W/m 12,9 km/h (3 Bft) 93,98 %
05.10.2018 12:08 18,6 C 26,1 C 13,9 C 68 % 1017,0 hPa 0,0 l/m 1 min 0 min 262 W/m 6,4 km/h (2 Bft) 100,00 %
05.10.2018 12:10 18,6 C 25,6 C 13,9 C 67 % 1017,0 hPa 0,0 l/m 0 min 0 min 200 W/m 9,7 km/h (2 Bft) 97,87 %
05.10.2018 12:12 18,7 C 25,6 C 13,9 C 67 % 1017,0 hPa 0,0 l/m 0 min 0 min 116 W/m 9,7 km/h (2 Bft) 93,62 %
05.10.2018 12:14 18,8 C 25,6 C 13,9 C 66 % 1017,0 hPa 0,0 l/m 0 min 0 min 73 W/m 12,9 km/h (3 Bft) 95,74 %
05.10.2018 12:16 18,8 C 25,6 C 13,9 C 67 % 1016,9 hPa 0,0 l/m 0 min 0 min 69 W/m 12,9 km/h (3 Bft) 97,87 %
05.10.2018 12:18 18,9 C 26,1 C 14,4 C 67 % 1017,0 hPa 0,0 l/m 0 min 0 min 67 W/m 9,7 km/h (2 Bft) 95,65 %
05.10.2018 12:20 19,0 C 25,0 C 14,4 C 67 % 1016,9 hPa 0,0 l/m 0 min 0 min 63 W/m 9,7 km/h (2 Bft) 95,74 %
05.10.2018 12:22 19,1 C 25,6 C 14,4 C 67 % 1016,9 hPa 0,0 l/m 0 min 0 min 63 W/m 9,7 km/h (2 Bft) 95,74 %
05.10.2018 12:24 19,1 C 26,7 C 14,4 C 67 % 1016,9 hPa 0,0 l/m 0 min 0 min 65 W/m 6,4 km/h (2 Bft) 95,74 %
05.10.2018 12:26 19,1 C 26,1 C 14,4 C 66 % 1016,9 hPa 0,0 l/m 0 min 0 min 65 W/m 16,1 km/h (3 Bft) 97,87 %
05.10.2018 12:28 19,2 C 25,0 C 15,0 C 66 % 1016,9 hPa 0,0 l/m 0 min 0 min 69 W/m 9,7 km/h (2 Bft) 97,87 %
05.10.2018 12:30 19,3 C 25,6 C 14,4 C 65 % 1016,9 hPa 0,0 l/m 0 min 0 min 67 W/m 16,1 km/h (3 Bft) 95,74 %
05.10.2018 12:32 19,3 C 25,0 C 15,0 C 65 % 1016,8 hPa 0,0 l/m 0 min 0 min 65 W/m 19,3 km/h (3 Bft) 93,48 %
05.10.2018 12:34 19,4 C 25,0 C 15,0 C 65 % 1016,8 hPa 0,0 l/m 0 min 0 min 65 W/m 12,9 km/h (3 Bft) 95,74 %
05.10.2018 12:36 19,4 C 26,1 C 15,0 C 64 % 1016,8 hPa 0,0 l/m 0 min 0 min 64 W/m 9,7 km/h (2 Bft) 96,08 %
05.10.2018 12:38 19,4 C 26,1 C 15,0 C 64 % 1016,8 hPa 0,0 l/m 0 min 0 min 66 W/m 12,9 km/h (3 Bft) 95,74 %
05.10.2018 12:40 19,5 C 26,1 C 15,0 C 64 % 1016,8 hPa 0,0 l/m 0 min 0 min 65 W/m 19,3 km/h (3 Bft) 93,48 %
05.10.2018 12:42 19,6 C 25,0 C 15,0 C 64 % 1016,7 hPa 0,0 l/m 0 min 0 min 81 W/m 12,9 km/h (3 Bft) 97,87 %
05.10.2018 12:44 19,6 C 23,3 C 15,0 C 64 % 1016,7 hPa 0,0 l/m 0 min 0 min 64 W/m 12,9 km/h (3 Bft) 97,87 %
05.10.2018 12:46 19,6 C 22,2 C 15,0 C 64 % 1016,6 hPa 0,0 l/m 0 min 0 min 90 W/m 12,9 km/h (3 Bft) 97,87 %
05.10.2018 12:48 19,7 C 21,1 C 15,0 C 63 % 1016,6 hPa 0,0 l/m 0 min 0 min 136 W/m 16,1 km/h (3 Bft) 97,87 %
05.10.2018 12:50 19,7 C 20,6 C 15,0 C 63 % 1016,5 hPa 0,0 l/m 0 min 0 min 97 W/m 9,7 km/h (2 Bft) 97,87 %
05.10.2018 12:52 19,7 C 20,0 C 15,0 C 63 % 1016,5 hPa 0,0 l/m 0 min 0 min 147 W/m 9,7 km/h (2 Bft) 100,00 %
05.10.2018 12:54 19,7 C 20,0 C 15,0 C 63 % 1016,5 hPa 0,0 l/m 0 min 0 min 164 W/m 12,9 km/h (3 Bft) 97,87 %
05.10.2018 12:56 19,7 C 19,4 C 15,0 C 63 % 1016,5 hPa 0,0 l/m 0 min 0 min 172 W/m 9,7 km/h (2 Bft) 63,83 %
05.10.2018 12:58 19,7 C 18,9 C 15,0 C 63 % 1016,4 hPa 0,0 l/m 0 min 0 min 186 W/m 16,1 km/h (3 Bft) 73,33 %
05.10.2018 13:00 19,7 C 18,9 C 15,0 C 63 % 1016,3 hPa 0,0 l/m 2 min 0 min 441 W/m 16,1 km/h (3 Bft) 97,87 %
05.10.2018 13:02 19,7 C 18,9 C 15,6 C 63 % 1016,3 hPa 0,0 l/m 2 min 0 min 478 W/m 6,4 km/h (2 Bft) 95,65 %
05.10.2018 13:04 19,7 C 18,9 C 15,6 C 62 % 1016,3 hPa 0,0 l/m 2 min 0 min 386 W/m 16,1 km/h (3 Bft) 97,87 %
05.10.2018 13:06 19,7 C 18,9 C 15,6 C 63 % 1016,2 hPa 0,0 l/m 2 min 0 min 366 W/m 9,7 km/h (2 Bft) 95,74 %
05.10.2018 13:08 19,7 C 18,9 C 15,6 C 63 % 1016,1 hPa 0,0 l/m 2 min 0 min 486 W/m 9,7 km/h (2 Bft) 95,74 %
05.10.2018 13:10 19,7 C 18,9 C 15,6 C 63 % 1016,1 hPa 0,0 l/m 2 min 0 min 506 W/m 12,9 km/h (3 Bft) 93,62 %
05.10.2018 13:12 19,7 C 18,9 C 15,6 C 63 % 1016,1 hPa 0,0 l/m 2 min 0 min 521 W/m 12,9 km/h (3 Bft) 93,62 %
05.10.2018 13:14 19,7 C 18,9 C 15,6 C 62 % 1016,1 hPa 0,0 l/m 2 min 0 min 523 W/m 19,3 km/h (3 Bft) 95,65 %
05.10.2018 13:16 19,7 C 18,9 C 15,6 C 62 % 1016,1 hPa 0,0 l/m 2 min 0 min 525 W/m 12,9 km/h (3 Bft) 97,92 %
05.10.2018 13:18 19,6 C 18,9 C 15,6 C 62 % 1016,1 hPa 0,0 l/m 2 min 0 min 518 W/m 16,1 km/h (3 Bft) 95,74 %
05.10.2018 13:20 19,6 C 18,9 C 15,6 C 62 % 1016,0 hPa 0,0 l/m 2 min 0 min 529 W/m 9,7 km/h (2 Bft) 95,74 %
05.10.2018 13:22 19,6 C 18,9 C 16,1 C 62 % 1016,0 hPa 0,0 l/m 2 min 0 min 486 W/m 12,9 km/h (3 Bft) 95,74 %
05.10.2018 13:24 19,6 C 19,4 C 15,6 C 63 % 1015,9 hPa 0,0 l/m 2 min 0 min 525 W/m 12,9 km/h (3 Bft) 95,74 %
05.10.2018 13:26 19,6 C 19,4 C 15,6 C 63 % 1015,9 hPa 0,0 l/m 2 min 0 min 545 W/m 12,9 km/h (3 Bft) 95,65 %
05.10.2018 13:28 19,6 C 19,4 C 15,6 C 62 % 1016,0 hPa 0,0 l/m 2 min 0 min 547 W/m 9,7 km/h (2 Bft) 95,74 %
05.10.2018 13:30 19,7 C 19,4 C 15,6 C 63 % 1015,9 hPa 0,0 l/m 2 min 0 min 547 W/m 12,9 km/h (3 Bft) 95,74 %
05.10.2018 13:32 19,7 C 19,4 C 15,6 C 63 % 1015,8 hPa 0,0 l/m 2 min 0 min 546 W/m 12,9 km/h (3 Bft) 95,74 %
05.10.2018 13:34 19,7 C 19,4 C 15,6 C 63 % 1015,8 hPa 0,0 l/m 2 min 0 min 548 W/m 9,7 km/h (2 Bft) 95,74 %
05.10.2018 13:36 19,7 C 19,4 C 16,1 C 63 % 1015,7 hPa 0,0 l/m 2 min 0 min 520 W/m 12,9 km/h (3 Bft) 95,74 %
05.10.2018 13:38 19,7 C 19,4 C 16,1 C 63 % 1015,7 hPa 0,0 l/m 2 min 0 min 554 W/m 12,9 km/h (3 Bft) 95,65 %
05.10.2018 13:40 19,7 C 19,4 C 16,1 C 63 % 1015,7 hPa 0,0 l/m 2 min 0 min 550 W/m 12,9 km/h (3 Bft) 93,62 %
05.10.2018 13:42 19,7 C 19,4 C 16,1 C 63 % 1015,7 hPa 0,0 l/m 2 min 0 min 540 W/m 6,4 km/h (2 Bft) 93,62 %
05.10.2018 13:44 19,7 C 19,4 C 16,1 C 63 % 1015,5 hPa 0,0 l/m 2 min 0 min 528 W/m 19,3 km/h (3 Bft) 95,74 %
05.10.2018 13:46 19,7 C 19,4 C 16,1 C 63 % 1015,6 hPa 0,0 l/m 2 min 0 min 524 W/m 16,1 km/h (3 Bft) 95,74 %
05.10.2018 13:48 19,7 C 20,0 C 16,1 C 63 % 1015,5 hPa 0,0 l/m 2 min 0 min 542 W/m 12,9 km/h (3 Bft) 95,74 %
05.10.2018 13:50 19,8 C 20,0 C 16,1 C 62 % 1015,5 hPa 0,0 l/m 2 min 0 min 549 W/m 9,7 km/h (2 Bft) 97,83 %
05.10.2018 13:52 19,8 C 20,0 C 16,1 C 62 % 1015,4 hPa 0,0 l/m 2 min 0 min 548 W/m 12,9 km/h (3 Bft) 97,87 %
05.10.2018 13:54 19,8 C 20,0 C 16,1 C 62 % 1015,4 hPa 0,0 l/m 2 min 0 min 548 W/m 12,9 km/h (3 Bft) 95,74 %
05.10.2018 13:56 19,8 C 20,0 C 16,1 C 62 % 1015,4 hPa 0,0 l/m 2 min 0 min 546 W/m 12,9 km/h (3 Bft) 97,87 %
05.10.2018 13:58 19,8 C 20,0 C 16,7 C 62 % 1015,4 hPa 0,0 l/m 2 min 0 min 529 W/m 9,7 km/h (2 Bft) 97,87 %
05.10.2018 14:00 19,9 C 20,0 C 16,7 C 62 % 1015,3 hPa 0,0 l/m 2 min 0 min 546 W/m 9,7 km/h (2 Bft) 97,87 %
05.10.2018 14:02 19,9 C 20,0 C 16,7 C 62 % 1015,3 hPa 0,0 l/m 2 min 0 min 544 W/m 16,1 km/h (3 Bft) 97,83 %
05.10.2018 14:04 19,9 C 20,0 C 16,1 C 62 % 1015,3 hPa 0,0 l/m 2 min 0 min 544 W/m 12,9 km/h (3 Bft) 97,87 %
05.10.2018 14:06 20,0 C 20,0 C 16,1 C 61 % 1015,3 hPa 0,0 l/m 2 min 0 min 521 W/m 12,9 km/h (3 Bft) 97,87 %
05.10.2018 14:08 20,0 C 20,6 C 16,1 C 61 % 1015,2 hPa 0,0 l/m 2 min 0 min 542 W/m 6,4 km/h (2 Bft) 97,87 %
05.10.2018 14:10 20,1 C 20,6 C 16,7 C 62 % 1015,2 hPa 0,0 l/m 2 min 0 min 533 W/m 9,7 km/h (2 Bft) 97,87 %
05.10.2018 14:12 20,1 C 20,6 C 16,7 C 62 % 1015,1 hPa 0,0 l/m 2 min 0 min 537 W/m 9,7 km/h (2 Bft) 100,00 %
05.10.2018 14:14 20,1 C 20,6 C 16,7 C 61 % 1015,2 hPa 0,0 l/m 2 min 0 min 528 W/m 12,9 km/h (3 Bft) 97,87 %
05.10.2018 14:16 20,2 C 20,6 C 16,7 C 61 % 1015,1 hPa 0,0 l/m 2 min 0 min 472 W/m 9,7 km/h (2 Bft) 100,00 %
05.10.2018 14:18 20,2 C 20,6 C 16,7 C 61 % 1015,0 hPa 0,0 l/m 2 min 0 min 372 W/m 12,9 km/h (3 Bft) 100,00 %
05.10.2018 14:20 20,2 C 20,6 C 16,7 C 62 % 1015,0 hPa 0,0 l/m 2 min 0 min 402 W/m 12,9 km/h (3 Bft) 100,00 %
05.10.2018 14:22 20,3 C 20,6 C 16,7 C 60 % 1015,0 hPa 0,0 l/m 2 min 0 min 322 W/m 19,3 km/h (3 Bft) 100,00 %
05.10.2018 14:24 20,3 C 20,6 C 16,7 C 61 % 1015,0 hPa 0,0 l/m 0 min 0 min 205 W/m 9,7 km/h (2 Bft) 97,14 %
05.10.2018 14:26 20,3 C 20,6 C 16,7 C 61 % 1015,0 hPa 0,0 l/m 0 min 0 min 133 W/m 12,9 km/h (3 Bft) 100,00 %
05.10.2018 14:28 20,4 C 20,6 C 16,7 C 61 % 1015,0 hPa 0,0 l/m 0 min 0 min 82 W/m 9,7 km/h (2 Bft) 100,00 %
05.10.2018 14:30 20,4 C 20,6 C 16,7 C 60 % 1014,9 hPa 0,0 l/m 0 min 0 min 67 W/m 12,9 km/h (3 Bft) 100,00 %
05.10.2018 14:32 20,4 C 20,6 C 16,7 C 60 % 1014,9 hPa 0,0 l/m 0 min 0 min 97 W/m 12,9 km/h (3 Bft) 97,87 %
05.10.2018 14:34 20,4 C 20,6 C 16,1 C 60 % 1014,8 hPa 0,0 l/m 0 min 0 min 123 W/m 12,9 km/h (3 Bft) 97,87 %
05.10.2018 14:36 20,5 C 20,6 C 16,7 C 59 % 1014,9 hPa 0,0 l/m 0 min 0 min 112 W/m 12,9 km/h (3 Bft) 100,00 %
05.10.2018 14:38 20,5 C 20,6 C 16,7 C 60 % 1014,9 hPa 0,0 l/m 2 min 0 min 262 W/m 9,7 km/h (2 Bft) 100,00 %
05.10.2018 14:40 20,6 C 20,6 C 16,7 C 60 % 1014,8 hPa 0,0 l/m 2 min 0 min 299 W/m 6,4 km/h (2 Bft) 100,00 %
05.10.2018 14:42 20,6 C 20,6 C 16,7 C 60 % 1014,8 hPa 0,0 l/m 0 min 0 min 246 W/m 12,9 km/h (3 Bft) 100,00 %
05.10.2018 14:44 20,6 C 20,6 C 17,2 C 59 % 1014,8 hPa 0,0 l/m 2 min 0 min 360 W/m 16,1 km/h (3 Bft) 100,00 %
05.10.2018 14:46 20,7 C 21,1 C 17,8 C 59 % 1014,8 hPa 0,0 l/m 2 min 0 min 498 W/m 16,1 km/h (3 Bft) 100,00 %
05.10.2018 14:48 20,7 C 21,1 C 17,8 C 59 % 1014,8 hPa 0,0 l/m 2 min 0 min 502 W/m 16,1 km/h (3 Bft) 100,00 %
05.10.2018 14:50 20,8 C 21,1 C 17,8 C 60 % 1014,8 hPa 0,0 l/m 2 min 0 min 523 W/m 12,9 km/h (3 Bft) 100,00 %
05.10.2018 14:52 20,8 C 21,1 C 17,8 C 59 % 1014,7 hPa 0,0 l/m 2 min 0 min 521 W/m 9,7 km/h (2 Bft) 100,00 %
05.10.2018 14:54 20,8 C 21,1 C 17,8 C 59 % 1014,8 hPa 0,0 l/m 2 min 0 min 519 W/m 16,1 km/h (3 Bft) 97,87 %
05.10.2018 14:56 20,9 C 21,1 C 17,2 C 60 % 1014,8 hPa 0,0 l/m 2 min 0 min 519 W/m 16,1 km/h (3 Bft) 97,87 %
05.10.2018 14:58 20,9 C 21,1 C 17,2 C 59 % 1014,8 hPa 0,0 l/m 2 min 0 min 514 W/m 16,1 km/h (3 Bft) 95,74 %
05.10.2018 15:00 21,0 C 21,1 C 17,2 C 58 % 1014,7 hPa 0,0 l/m 2 min 0 min 508 W/m 16,1 km/h (3 Bft) 97,87 %
05.10.2018 15:02 21,0 C 21,7 C 17,2 C 59 % 1014,7 hPa 0,0 l/m 2 min 0 min 506 W/m 12,9 km/h (3 Bft) 97,83 %
05.10.2018 15:04 21,1 C 21,1 C 17,8 C 59 % 1014,7 hPa 0,0 l/m 2 min 0 min 497 W/m 12,9 km/h (3 Bft) 97,87 %
05.10.2018 15:06 21,1 C 21,1 C 17,2 C 58 % 1014,6 hPa 0,0 l/m 2 min 0 min 488 W/m 12,9 km/h (3 Bft) 97,87 %
05.10.2018 15:08 21,1 C 21,1 C 17,2 C 59 % 1014,7 hPa 0,0 l/m 2 min 0 min 501 W/m 12,9 km/h (3 Bft) 95,74 %
05.10.2018 15:10 21,2 C 21,7 C 17,8 C 59 % 1014,6 hPa 0,0 l/m 2 min 0 min 497 W/m 9,7 km/h (2 Bft) 97,87 %
05.10.2018 15:12 21,2 C 21,7 C 17,8 C 58 % 1014,6 hPa 0,0 l/m 2 min 0 min 491 W/m 16,1 km/h (3 Bft) 95,74 %
05.10.2018 15:14 21,2 C 21,7 C 17,8 C 58 % 1014,4 hPa 0,0 l/m 2 min 0 min 480 W/m 9,7 km/h (2 Bft) 97,83 %
05.10.2018 15:16 21,3 C 21,1 C 17,8 C 58 % 1014,4 hPa 0,0 l/m 2 min 0 min 490 W/m 12,9 km/h (3 Bft) 97,87 %
05.10.2018 15:18 21,3 C 21,1 C 17,8 C 58 % 1014,3 hPa 0,0 l/m 2 min 0 min 487 W/m 12,9 km/h (3 Bft) 97,87 %
05.10.2018 15:20 21,3 C 21,7 C 17,2 C 58 % 1014,3 hPa 0,0 l/m 2 min 0 min 495 W/m 12,9 km/h (3 Bft) 96,61 %
05.10.2018 15:22 21,4 C 21,7 C 17,2 C 58 % 1014,3 hPa 0,0 l/m 2 min 0 min 492 W/m 6,4 km/h (2 Bft) 97,14 %
05.10.2018 15:24 21,4 C 21,7 C 17,2 C 58 % 1014,4 hPa 0,0 l/m 2 min 0 min 486 W/m 12,9 km/h (3 Bft) 97,87 %
05.10.2018 15:26 21,4 C 21,7 C 17,8 C 58 % 1014,3 hPa 0,0 l/m 2 min 0 min 483 W/m 12,9 km/h (3 Bft) 97,83 %
05.10.2018 15:28 21,5 C 21,7 C 17,8 C 58 % 1014,3 hPa 0,0 l/m 2 min 0 min 480 W/m 12,9 km/h (3 Bft) 91,49 %
05.10.2018 15:30 21,6 C 21,7 C 17,8 C 58 % 1014,3 hPa 0,0 l/m 2 min 0 min 478 W/m 12,9 km/h (3 Bft) 95,74 %
05.10.2018 15:32 21,6 C 21,7 C 17,2 C 57 % 1014,3 hPa 0,0 l/m 2 min 0 min 476 W/m 19,3 km/h (3 Bft) 95,74 %
05.10.2018 15:34 21,6 C 21,7 C 17,8 C 57 % 1014,4 hPa 0,0 l/m 2 min 0 min 474 W/m 12,9 km/h (3 Bft) 97,87 %
05.10.2018 15:36 21,6 C 21,7 C 17,8 C 57 % 1014,3 hPa 0,0 l/m 2 min 0 min 469 W/m 19,3 km/h (3 Bft) 96,08 %
05.10.2018 15:38 21,7 C 21,7 C 17,8 C 56 % 1014,2 hPa 0,0 l/m 2 min 0 min 466 W/m 16,1 km/h (3 Bft) 97,87 %
05.10.2018 15:40 21,7 C 21,7 C 17,8 C 56 % 1014,2 hPa 0,0 l/m 2 min 0 min 465 W/m 12,9 km/h (3 Bft) 100,00 %
05.10.2018 15:42 21,7 C 21,7 C 17,8 C 56 % 1014,1 hPa 0,0 l/m 2 min 0 min 462 W/m 16,1 km/h (3 Bft) 100,00 %
05.10.2018 15:44 21,7 C 21,7 C 17,8 C 56 % 1014,0 hPa 0,0 l/m 2 min 0 min 458 W/m 12,9 km/h (3 Bft) 95,74 %
05.10.2018 15:46 21,7 C 21,7 C 17,8 C 56 % 1014,0 hPa 0,0 l/m 2 min 0 min 437 W/m 16,1 km/h (3 Bft) 97,83 %
05.10.2018 15:48 21,8 C 21,7 C 17,8 C 55 % 1013,9 hPa 0,0 l/m 2 min 0 min 433 W/m 12,9 km/h (3 Bft) 97,87 %
05.10.2018 15:50 21,8 C 21,7 C 17,8 C 55 % 1013,9 hPa 0,0 l/m 2 min 0 min 451 W/m 16,1 km/h (3 Bft) 97,87 %
05.10.2018 15:52 21,8 C 21,7 C 17,8 C 55 % 1013,9 hPa 0,0 l/m 2 min 0 min 444 W/m 12,9 km/h (3 Bft) 95,74 %
05.10.2018 15:54 21,8 C 21,7 C 17,8 C 54 % 1013,9 hPa 0,0 l/m 2 min 0 min 422 W/m 12,9 km/h (3 Bft) 95,74 %
05.10.2018 15:56 21,8 C 21,7 C 17,8 C 55 % 1013,7 hPa 0,0 l/m 2 min 0 min 445 W/m 16,1 km/h (3 Bft) 97,87 %
05.10.2018 15:58 21,9 C 21,7 C 17,8 C 55 % 1013,8 hPa 0,0 l/m 2 min 0 min 441 W/m 9,7 km/h (2 Bft) 97,83 %
05.10.2018 16:00 21,9 C 22,2 C 17,8 C 54 % 1013,8 hPa 0,0 l/m 2 min 0 min 439 W/m 16,1 km/h (3 Bft) 97,87 %
05.10.2018 16:02 21,9 C 22,2 C 17,8 C 55 % 1013,7 hPa 0,0 l/m 2 min 0 min 436 W/m 12,9 km/h (3 Bft) 97,87 %
05.10.2018 16:04 21,9 C 22,2 C 18,3 C 55 % 1013,7 hPa 0,0 l/m 2 min 0 min 410 W/m 16,1 km/h (3 Bft) 97,87 %
05.10.2018 16:06 21,9 C 22,2 C 18,3 C 55 % 1013,6 hPa 0,0 l/m 2 min 0 min 429 W/m 9,7 km/h (2 Bft) 97,87 %
05.10.2018 16:08 22,0 C 22,2 C 17,8 C 55 % 1013,6 hPa 0,0 l/m 2 min 0 min 423 W/m 9,7 km/h (2 Bft) 95,74 %
05.10.2018 16:10 22,0 C 22,2 C 17,8 C 55 % 1013,5 hPa 0,0 l/m 2 min 0 min 420 W/m 6,4 km/h (2 Bft) 97,83 %
05.10.2018 16:12 22,1 C 22,8 C 17,8 C 55 % 1013,6 hPa 0,0 l/m 2 min 0 min 415 W/m 16,1 km/h (3 Bft) 97,87 %
05.10.2018 16:14 22,1 C 23,9 C 17,8 C 55 % 1013,5 hPa 0,0 l/m 2 min 0 min 411 W/m 12,9 km/h (3 Bft) 100,00 %
05.10.2018 16:16 22,1 C 23,9 C 17,2 C 54 % 1013,5 hPa 0,0 l/m 2 min 0 min 408 W/m 12,9 km/h (3 Bft) 95,74 %
05.10.2018 16:18 22,2 C 23,9 C 17,2 C 55 % 1013,5 hPa 0,0 l/m 2 min 0 min 402 W/m 9,7 km/h (2 Bft) 97,87 %
05.10.2018 16:20 22,2 C 24,4 C 17,2 C 54 % 1013,6 hPa 0,0 l/m 2 min 0 min 391 W/m 12,9 km/h (3 Bft) 97,87 %
05.10.2018 16:22 22,2 C 25,0 C 17,2 C 55 % 1013,5 hPa 0,0 l/m 2 min 0 min 395 W/m 12,9 km/h (3 Bft) 97,83 %
05.10.2018 16:24 22,2 C 24,4 C 17,2 C 55 % 1013,5 hPa 0,0 l/m 2 min 0 min 393 W/m 9,7 km/h (2 Bft) 97,87 %
05.10.2018 16:26 22,3 C 24,4 C 17,2 C 54 % 1013,3 hPa 0,0 l/m 2 min 0 min 389 W/m 12,9 km/h (3 Bft) 95,74 %
05.10.2018 16:28 22,3 C 23,9 C 17,2 C 53 % 1013,4 hPa 0,0 l/m 2 min 0 min 385 W/m 12,9 km/h (3 Bft) 95,74 %
05.10.2018 16:30 22,3 C 24,4 C 17,2 C 55 % 1013,4 hPa 0,0 l/m 2 min 0 min 374 W/m 12,9 km/h (3 Bft) 95,74 %
05.10.2018 16:32 22,4 C 25,0 C 17,2 C 54 % 1013,5 hPa 0,0 l/m 2 min 0 min 375 W/m 12,9 km/h (3 Bft) 95,12 %
05.10.2018 16:34 22,4 C 25,6 C 17,2 C 54 % 1013,4 hPa 0,0 l/m 2 min 0 min 372 W/m 12,9 km/h (3 Bft) 97,87 %
05.10.2018 16:36 22,4 C 25,6 C 17,2 C 54 % 1013,4 hPa 0,0 l/m 2 min 0 min 368 W/m 9,7 km/h (2 Bft) 97,87 %
05.10.2018 16:38 22,5 C 26,1 C 17,2 C 54 % 1013,4 hPa 0,0 l/m 2 min 0 min 361 W/m 9,7 km/h (2 Bft) 95,74 %
05.10.2018 16:40 22,5 C 25,6 C 17,2 C 54 % 1013,3 hPa 0,0 l/m 2 min 0 min 344 W/m 9,7 km/h (2 Bft) 97,87 %
05.10.2018 16:42 22,6 C 26,1 C 17,2 C 54 % 1013,3 hPa 0,0 l/m 2 min 0 min 352 W/m 6,4 km/h (2 Bft) 97,87 %
05.10.2018 16:44 22,6 C 25,6 C 17,2 C 54 % 1013,3 hPa 0,0 l/m 2 min 0 min 347 W/m 12,9 km/h (3 Bft) 97,87 %
05.10.2018 16:46 22,6 C 26,1 C 17,2 C 54 % 1013,3 hPa 0,0 l/m 2 min 0 min 345 W/m 6,4 km/h (2 Bft) 97,87 %
05.10.2018 16:48 22,6 C 25,6 C 17,2 C 53 % 1013,2 hPa 0,0 l/m 2 min 0 min 334 W/m 9,7 km/h (2 Bft) 97,83 %
05.10.2018 16:50 22,6 C 25,6 C 17,2 C 53 % 1013,1 hPa 0,0 l/m 2 min 0 min 332 W/m 12,9 km/h (3 Bft) 97,87 %
05.10.2018 16:52 22,6 C 25,0 C 17,2 C 54 % 1013,1 hPa 0,0 l/m 2 min 0 min 331 W/m 9,7 km/h (2 Bft) 97,87 %
05.10.2018 16:54 22,7 C 25,0 C 17,2 C 53 % 1013,1 hPa 0,0 l/m 2 min 0 min 323 W/m 12,9 km/h (3 Bft) 97,87 %
05.10.2018 16:56 22,7 C 24,4 C 17,2 C 53 % 1013,0 hPa 0,0 l/m 2 min 0 min 318 W/m 12,9 km/h (3 Bft) 97,87 %
05.10.2018 16:58 22,7 C 23,9 C 17,2 C 53 % 1012,9 hPa 0,0 l/m 2 min 0 min 315 W/m 12,9 km/h (3 Bft) 97,87 %
05.10.2018 17:00 22,7 C 23,3 C 17,2 C 53 % 1012,9 hPa 0,0 l/m 2 min 0 min 310 W/m 9,7 km/h (2 Bft) 97,83 %
05.10.2018 17:02 22,7 C 22,8 C 17,2 C 53 % 1012,9 hPa 0,0 l/m 2 min 0 min 305 W/m 9,7 km/h (2 Bft) 97,96 %
05.10.2018 17:04 22,6 C 22,8 C 17,2 C 53 % 1012,8 hPa 0,0 l/m 2 min 0 min 299 W/m 9,7 km/h (2 Bft) 97,87 %
05.10.2018 17:06 22,6 C 23,3 C 17,2 C 52 % 1012,8 hPa 0,0 l/m 2 min 0 min 293 W/m 9,7 km/h (2 Bft) 97,87 %
05.10.2018 17:08 22,6 C 23,3 C 17,2 C 52 % 1012,8 hPa 0,0 l/m 2 min 0 min 288 W/m 16,1 km/h (3 Bft) 97,87 %
05.10.2018 17:10 22,6 C 22,8 C 17,2 C 52 % 1012,7 hPa 0,0 l/m 2 min 0 min 281 W/m 6,4 km/h (2 Bft) 95,65 %
05.10.2018 17:12 22,6 C 22,2 C 17,2 C 52 % 1012,8 hPa 0,0 l/m 2 min 0 min 279 W/m 6,4 km/h (2 Bft) 97,87 %
05.10.2018 17:14 22,6 C 21,7 C 16,7 C 53 % 1012,7 hPa 0,0 l/m 2 min 0 min 275 W/m 9,7 km/h (2 Bft) 95,74 %
05.10.2018 17:16 22,6 C 21,7 C 16,7 C 53 % 1012,8 hPa 0,0 l/m 2 min 0 min 269 W/m 9,7 km/h (2 Bft) 97,87 %
05.10.2018 17:18 22,6 C 21,7 C 16,7 C 53 % 1012,7 hPa 0,0 l/m 2 min 0 min 192 W/m 6,4 km/h (2 Bft) 100,00 %
05.10.2018 17:20 22,5 C 21,1 C 16,7 C 52 % 1012,7 hPa 0,0 l/m 0 min 0 min 113 W/m 12,9 km/h (3 Bft) 97,87 %
05.10.2018 17:22 22,4 C 21,1 C 16,7 C 53 % 1012,7 hPa 0,0 l/m 0 min 0 min 45 W/m 9,7 km/h (2 Bft) 97,83 %
05.10.2018 17:24 22,4 C 21,1 C 16,7 C 53 % 1012,6 hPa 0,0 l/m 0 min 0 min 43 W/m 9,7 km/h (2 Bft) 97,87 %
05.10.2018 17:26 22,4 C 21,1 C 16,7 C 53 % 1012,6 hPa 0,0 l/m 0 min 0 min 42 W/m 9,7 km/h (2 Bft) 97,87 %
05.10.2018 17:28 22,3 C 21,1 C 16,7 C 53 % 1012,6 hPa 0,0 l/m 0 min 0 min 42 W/m 9,7 km/h (2 Bft) 95,74 %
05.10.2018 17:30 22,3 C 21,1 C 16,7 C 53 % 1012,6 hPa 0,0 l/m 0 min 0 min 41 W/m 9,7 km/h (2 Bft) 95,74 %
05.10.2018 17:32 22,2 C 21,1 C 16,7 C 53 % 1012,6 hPa 0,0 l/m 0 min 0 min 40 W/m 12,9 km/h (3 Bft) 97,87 %
05.10.2018 17:34 22,2 C 21,1 C 16,7 C 53 % 1012,6 hPa 0,0 l/m 0 min 0 min 40 W/m 6,4 km/h (2 Bft) 97,83 %
05.10.2018 17:36 22,1 C 21,1 C 16,7 C 54 % 1012,5 hPa 0,0 l/m 0 min 0 min 40 W/m 6,4 km/h (2 Bft) 97,92 %
05.10.2018 17:38 22,1 C 21,1 C 16,7 C 54 % 1012,6 hPa 0,0 l/m 0 min 0 min 39 W/m 9,7 km/h (2 Bft) 97,87 %
05.10.2018 17:40 22,0 C 21,1 C 16,7 C 54 % 1012,6 hPa 0,0 l/m 0 min 0 min 39 W/m 12,9 km/h (3 Bft) 97,87 %
05.10.2018 17:42 22,0 C 20,6 C 16,7 C 54 % 1012,5 hPa 0,0 l/m 0 min 0 min 38 W/m 6,4 km/h (2 Bft) 95,74 %
05.10.2018 17:44 21,9 C 20,6 C 16,7 C 54 % 1012,5 hPa 0,0 l/m 0 min 0 min 37 W/m 9,7 km/h (2 Bft) 97,87 %
05.10.2018 17:46 21,9 C 20,6 C 16,7 C 54 % 1012,4 hPa 0,0 l/m 0 min 0 min 37 W/m 9,7 km/h (2 Bft) 95,65 %
05.10.2018 17:48 21,8 C 20,6 C 16,7 C 54 % 1012,5 hPa 0,0 l/m 0 min 0 min 36 W/m 12,9 km/h (3 Bft) 97,87 %
05.10.2018 17:50 21,7 C 20,6 C 16,7 C 54 % 1012,5 hPa 0,0 l/m 0 min 0 min 35 W/m 6,4 km/h (2 Bft) 97,87 %
05.10.2018 17:52 21,7 C 20,6 C 16,7 C 54 % 1012,4 hPa 0,0 l/m 0 min 0 min 35 W/m 9,7 km/h (2 Bft) 97,92 %
05.10.2018 17:54 21,7 C 20,6 C 16,7 C 54 % 1012,4 hPa 0,0 l/m 0 min 0 min 33 W/m 9,7 km/h (2 Bft) 97,87 %
05.10.2018 17:56 21,6 C 20,6 C 16,7 C 54 % 1012,5 hPa 0,0 l/m 0 min 0 min 33 W/m 3,2 km/h (1 Bft) 97,87 %
05.10.2018 17:58 21,6 C 20,0 C 16,7 C 55 % 1012,5 hPa 0,0 l/m 0 min 0 min 33 W/m 3,2 km/h (1 Bft) 97,83 %
05.10.2018 18:00 21,6 C 20,0 C 16,1 C 55 % 1012,5 hPa 0,0 l/m 0 min 0 min 32 W/m 6,4 km/h (2 Bft) 97,87 %
05.10.2018 18:02 21,5 C 20,0 C 16,1 C 55 % 1012,5 hPa 0,0 l/m 0 min 0 min 32 W/m 9,7 km/h (2 Bft) 97,87 %
05.10.2018 18:04 21,4 C 20,0 C 16,1 C 55 % 1012,4 hPa 0,0 l/m 0 min 0 min 32 W/m 9,7 km/h (2 Bft) 97,87 %
05.10.2018 18:06 21,4 C 20,0 C 16,1 C 55 % 1012,4 hPa 0,0 l/m 0 min 0 min 30 W/m 3,2 km/h (1 Bft) 97,87 %
05.10.2018 18:08 21,3 C 20,0 C 16,1 C 55 % 1012,4 hPa 0,0 l/m 0 min 0 min 30 W/m 3,2 km/h (1 Bft) 100,00 %
05.10.2018 18:10 21,3 C 19,4 C 16,1 C 56 % 1012,4 hPa 0,0 l/m 0 min 0 min 29 W/m 6,4 km/h (2 Bft) 100,00 %
05.10.2018 18:12 21,2 C 19,4 C 16,1 C 56 % 1012,4 hPa 0,0 l/m 0 min 0 min 28 W/m 3,2 km/h (1 Bft) 100,00 %
05.10.2018 18:14 21,2 C 19,4 C 16,1 C 56 % 1012,5 hPa 0,0 l/m 0 min 0 min 28 W/m 3,2 km/h (1 Bft) 100,00 %
05.10.2018 18:16 21,1 C 19,4 C 16,1 C 56 % 1012,5 hPa 0,0 l/m 0 min 0 min 27 W/m 6,4 km/h (2 Bft) 97,87 %
05.10.2018 18:18 21,1 C 19,4 C 16,1 C 56 % 1012,5 hPa 0,0 l/m 0 min 0 min 26 W/m 6,4 km/h (2 Bft) 100,00 %
05.10.2018 18:20 21,0 C 19,4 C 15,6 C 56 % 1012,6 hPa 0,0 l/m 0 min 0 min 25 W/m 6,4 km/h (2 Bft) 100,00 %
05.10.2018 18:22 21,0 C 19,4 C 15,6 C 56 % 1012,6 hPa 0,0 l/m 0 min 0 min 24 W/m 6,4 km/h (2 Bft) 97,87 %
05.10.2018 18:24 20,9 C 19,4 C 15,6 C 57 % 1012,5 hPa 0,0 l/m 0 min 0 min 23 W/m 3,2 km/h (1 Bft) 97,87 %
05.10.2018 18:26 20,8 C 18,9 C 15,6 C 57 % 1012,5 hPa 0,0 l/m 0 min 0 min 21 W/m 6,4 km/h (2 Bft) 100,00 %
05.10.2018 18:28 20,8 C 18,9 C 15,6 C 57 % 1012,5 hPa 0,0 l/m 0 min 0 min 21 W/m 6,4 km/h (2 Bft) 100,00 %
05.10.2018 18:30 20,7 C 18,9 C 15,6 C 57 % 1012,5 hPa 0,0 l/m 0 min 0 min 20 W/m 6,4 km/h (2 Bft) 100,00 %
05.10.2018 18:32 20,7 C 18,9 C 15,6 C 57 % 1012,5 hPa 0,0 l/m 0 min 0 min 19 W/m 3,2 km/h (1 Bft) 97,83 %
05.10.2018 18:34 20,6 C 18,9 C 15,6 C 57 % 1012,5 hPa 0,0 l/m 0 min 0 min 19 W/m 6,4 km/h (2 Bft) 100,00 %
05.10.2018 18:36 20,6 C 18,9 C 15,6 C 58 % 1012,5 hPa 0,0 l/m 0 min 0 min 18 W/m 6,4 km/h (2 Bft) 100,00 %
05.10.2018 18:38 20,5 C 18,3 C 15,6 C 58 % 1012,5 hPa 0,0 l/m 0 min 0 min 18 W/m 3,2 km/h (1 Bft) 97,87 %
05.10.2018 18:40 20,4 C 18,3 C 15,0 C 59 % 1012,5 hPa 0,0 l/m 0 min 0 min 17 W/m 0,0 km/h (0 Bft) 95,74 %
05.10.2018 18:42 20,3 C 17,8 C 15,0 C 60 % 1012,5 hPa 0,0 l/m 0 min 0 min 16 W/m 3,2 km/h (1 Bft) 97,87 %
05.10.2018 18:44 20,2 C 17,8 C 15,0 C 59 % 1012,6 hPa 0,0 l/m 0 min 0 min 15 W/m 6,4 km/h (2 Bft) 97,83 %
05.10.2018 18:46 20,2 C 17,8 C 15,0 C 59 % 1012,6 hPa 0,0 l/m 0 min 0 min 14 W/m 3,2 km/h (1 Bft) 97,87 %
05.10.2018 18:48 20,1 C 17,8 C 15,0 C 59 % 1012,5 hPa 0,0 l/m 0 min 0 min 12 W/m 3,2 km/h (1 Bft) 97,87 %
05.10.2018 18:50 20,0 C 17,2 C 14,4 C 60 % 1012,5 hPa 0,0 l/m 0 min 0 min 12 W/m 3,2 km/h (1 Bft) 97,87 %
05.10.2018 18:52 19,9 C 17,2 C 14,4 C 60 % 1012,5 hPa 0,0 l/m 0 min 0 min 11 W/m 3,2 km/h (1 Bft) 97,87 %
05.10.2018 18:54 19,8 C 16,7 C 14,4 C 61 % 1012,4 hPa 0,0 l/m 0 min 0 min 11 W/m 0,0 km/h (0 Bft) 97,87 %
05.10.2018 18:56 19,7 C 16,7 C 14,4 C 62 % 1012,4 hPa 0,0 l/m 0 min 0 min 9 W/m 0,0 km/h (0 Bft) 97,83 %
05.10.2018 18:58 19,6 C 16,7 C 14,4 C 62 % 1012,4 hPa 0,0 l/m 0 min 0 min 9 W/m 0,0 km/h (0 Bft) 97,87 %
05.10.2018 19:00 19,4 C 16,1 C 14,4 C 62 % 1012,5 hPa 0,0 l/m 0 min 0 min 7 W/m 0,0 km/h (0 Bft) 91,49 %
05.10.2018 19:02 19,3 C 16,1 C 14,4 C 63 % 1012,4 hPa 0,0 l/m 0 min 0 min 6 W/m 0,0 km/h (0 Bft) 97,87 %
05.10.2018 19:04 19,2 C 16,1 C 13,9 C 63 % 1012,4 hPa 0,0 l/m 0 min 0 min 5 W/m 0,0 km/h (0 Bft) 97,73 %
05.10.2018 19:06 19,1 C 15,6 C 13,9 C 63 % 1012,4 hPa 0,0 l/m 0 min 0 min 5 W/m 0,0 km/h (0 Bft) 97,83 %
05.10.2018 19:08 18,9 C 15,6 C 13,9 C 64 % 1012,4 hPa 0,0 l/m 0 min 0 min 3 W/m 0,0 km/h (0 Bft) 97,87 %
05.10.2018 19:10 18,7 C 15,6 C 13,9 C 64 % 1012,3 hPa 0,0 l/m 0 min 0 min 0 W/m 0,0 km/h (0 Bft) 95,74 %
05.10.2018 19:12 18,6 C 15,0 C 13,9 C 65 % 1012,3 hPa 0,0 l/m 0 min 0 min 0 W/m 0,0 km/h (0 Bft) 100,00 %
05.10.2018 19:14 18,4 C 15,0 C 13,9 C 65 % 1012,4 hPa 0,0 l/m 0 min 0 min 0 W/m 0,0 km/h (0 Bft) 95,74 %
05.10.2018 19:16 18,3 C 15,0 C 13,3 C 65 % 1012,3 hPa 0,0 l/m 0 min 0 min 0 W/m 0,0 km/h (0 Bft) 100,00 %
05.10.2018 19:18 18,2 C 14,4 C 13,3 C 66 % 1012,3 hPa 0,0 l/m 0 min 0 min 0 W/m 0,0 km/h (0 Bft) 100,00 %
05.10.2018 19:20 18,1 C 14,4 C 13,3 C 66 % 1012,2 hPa 0,0 l/m 0 min 0 min 0 W/m 0,0 km/h (0 Bft) 100,00 %
05.10.2018 19:22 17,9 C 14,4 C 13,3 C 67 % 1012,2 hPa 0,0 l/m 0 min 0 min 0 W/m 0,0 km/h (0 Bft) 100,00 %
05.10.2018 19:24 17,8 C 14,4 C 13,3 C 67 % 1012,2 hPa 0,0 l/m 0 min 0 min 0 W/m 0,0 km/h (0 Bft) 100,00 %
05.10.2018 19:26 17,7 C 14,4 C 13,3 C 67 % 1012,2 hPa 0,0 l/m 0 min 0 min 0 W/m 0,0 km/h (0 Bft) 100,00 %
05.10.2018 19:28 17,6 C 14,4 C 12,8 C 67 % 1012,2 hPa 0,0 l/m 0 min 0 min 0 W/m 0,0 km/h (0 Bft) 100,00 %
05.10.2018 19:30 17,4 C 14,4 C 12,8 C 67 % 1012,2 hPa 0,0 l/m 0 min 0 min 0 W/m 0,0 km/h (0 Bft) 100,00 %
05.10.2018 19:32 17,3 C 13,9 C 12,8 C 68 % 1012,2 hPa 0,0 l/m 0 min 0 min 0 W/m 0,0 km/h (0 Bft) 100,00 %
05.10.2018 19:34 17,2 C 13,9 C 12,8 C 68 % 1012,2 hPa 0,0 l/m 0 min 0 min 0 W/m 0,0 km/h (0 Bft) 100,00 %
05.10.2018 19:36 17,0 C 13,9 C 12,8 C 68 % 1012,2 hPa 0,0 l/m 0 min 0 min 0 W/m 0,0 km/h (0 Bft) 97,87 %
05.10.2018 19:38 16,9 C 13,9 C 12,8 C 69 % 1012,2 hPa 0,0 l/m 0 min 0 min 0 W/m 0,0 km/h (0 Bft) 97,87 %
05.10.2018 19:40 16,8 C 13,9 C 12,8 C 69 % 1012,2 hPa 0,0 l/m 0 min 0 min 0 W/m 0,0 km/h (0 Bft) 95,74 %
05.10.2018 19:42 16,7 C 13,9 C 12,8 C 69 % 1012,2 hPa 0,0 l/m 0 min 0 min 0 W/m 0,0 km/h (0 Bft) 97,83 %
05.10.2018 19:44 16,6 C 13,9 C 12,2 C 70 % 1012,2 hPa 0,0 l/m 0 min 0 min 0 W/m 0,0 km/h (0 Bft) 97,87 %
05.10.2018 19:46 16,4 C 13,9 C 12,2 C 70 % 1012,2 hPa 0,0 l/m 0 min 0 min 0 W/m 0,0 km/h (0 Bft) 97,87 %
05.10.2018 19:48 16,3 C 13,9 C 12,2 C 70 % 1012,2 hPa 0,0 l/m 0 min 0 min 0 W/m 0,0 km/h (0 Bft) 95,74 %
05.10.2018 19:50 16,2 C 13,9 C 12,2 C 70 % 1012,2 hPa 0,0 l/m 0 min 0 min 0 W/m 0,0 km/h (0 Bft) 97,87 %
05.10.2018 19:52 16,1 C 13,3 C 12,2 C 71 % 1012,2 hPa 0,0 l/m 0 min 0 min 0 W/m 0,0 km/h (0 Bft) 97,87 %
05.10.2018 19:54 16,0 C 13,3 C 12,2 C 71 % 1012,2 hPa 0,0 l/m 0 min 0 min 0 W/m 0,0 km/h (0 Bft) 91,30 %
05.10.2018 19:56 15,9 C 13,3 C 12,2 C 71 % 1012,2 hPa 0,0 l/m 0 min 0 min 0 W/m 0,0 km/h (0 Bft) 97,87 %
05.10.2018 19:58 15,8 C 13,3 C 12,2 C 72 % 1012,2 hPa 0,0 l/m 0 min 0 min 0 W/m 0,0 km/h (0 Bft) 97,87 %
05.10.2018 20:00 15,8 C 13,3 C 12,2 C 72 % 1012,1 hPa 0,0 l/m 0 min 0 min 0 W/m 0,0 km/h (0 Bft) 97,87 %
05.10.2018 20:02 15,7 C 13,3 C 12,2 C 72 % 1012,1 hPa 0,0 l/m 0 min 0 min 0 W/m 0,0 km/h (0 Bft) 41,67 %
05.10.2018 20:04 15,6 C 13,3 C 12,2 C 72 % 1012,1 hPa 0,0 l/m 0 min 0 min 0 W/m 0,0 km/h (0 Bft) 95,65 %
05.10.2018 20:06 15,6 C 13,3 C 12,2 C 73 % 1012,1 hPa 0,0 l/m 0 min 0 min 0 W/m 0,0 km/h (0 Bft) 91,49 %
05.10.2018 20:08 15,4 C 13,3 C 12,2 C 73 % 1012,1 hPa 0,0 l/m 0 min 0 min 0 W/m 0,0 km/h (0 Bft) 95,74 %
05.10.2018 20:10 15,4 C 13,3 C 12,2 C 73 % 1012,0 hPa 0,0 l/m 0 min 0 min 0 W/m 0,0 km/h (0 Bft) 95,74 %
05.10.2018 20:12 15,3 C 13,3 C 12,2 C 73 % 1012,0 hPa 0,0 l/m 0 min 0 min 0 W/m 0,0 km/h (0 Bft) 95,74 %
05.10.2018 20:14 15,3 C 13,3 C 12,2 C 73 % 1012,0 hPa 0,0 l/m 0 min 0 min 0 W/m 0,0 km/h (0 Bft) 95,74 %
05.10.2018 20:16 15,2 C 12,8 C 11,7 C 74 % 1012,0 hPa 0,0 l/m 0 min 0 min 0 W/m 0,0 km/h (0 Bft) 95,65 %
05.10.2018 20:18 15,1 C 12,8 C 11,7 C 74 % 1012,0 hPa 0,0 l/m 0 min 0 min 0 W/m 0,0 km/h (0 Bft) 95,74 %
05.10.2018 20:20 15,1 C 12,8 C 11,7 C 74 % 1012,0 hPa 0,0 l/m 0 min 0 min 0 W/m 0,0 km/h (0 Bft) 95,74 %
05.10.2018 20:22 15,0 C 12,8 C 11,7 C 74 % 1012,0 hPa 0,0 l/m 0 min 0 min 0 W/m 0,0 km/h (0 Bft) 95,74 %
05.10.2018 20:24 14,9 C 12,8 C 11,7 C 75 % 1012,0 hPa 0,0 l/m 0 min 0 min 0 W/m 0,0 km/h (0 Bft) 93,62 %
05.10.2018 20:26 14,9 C 12,8 C 11,7 C 75 % 1012,0 hPa 0,0 l/m 0 min 0 min 0 W/m 0,0 km/h (0 Bft) 91,49 %
05.10.2018 20:28 14,8 C 12,8 C 11,7 C 75 % 1012,0 hPa 0,0 l/m 0 min 0 min 0 W/m 0,0 km/h (0 Bft) 95,65 %
05.10.2018 20:30 14,8 C 12,8 C 11,7 C 75 % 1012,0 hPa 0,0 l/m 0 min 0 min 0 W/m 0,0 km/h (0 Bft) 93,62 %
05.10.2018 20:32 14,7 C 12,8 C 11,7 C 75 % 1011,9 hPa 0,0 l/m 0 min 0 min 0 W/m 0,0 km/h (0 Bft) 93,62 %
05.10.2018 20:34 14,7 C 12,8 C 11,7 C 76 % 1011,9 hPa 0,0 l/m 0 min 0 min 0 W/m 0,0 km/h (0 Bft) 95,74 %
05.10.2018 20:36 14,6 C 12,8 C 11,7 C 76 % 1012,0 hPa 0,0 l/m 0 min 0 min 0 W/m 0,0 km/h (0 Bft) 96,23 %
05.10.2018 20:38 14,5 C 12,8 C 11,7 C 76 % 1012,0 hPa 0,0 l/m 0 min 0 min 0 W/m 0,0 km/h (0 Bft) 91,49 %
05.10.2018 20:40 14,4 C 12,8 C 11,7 C 76 % 1012,0 hPa 0,0 l/m 0 min 0 min 0 W/m 0,0 km/h (0 Bft) 93,48 %
05.10.2018 20:42 14,4 C 12,8 C 11,7 C 77 % 1012,0 hPa 0,0 l/m 0 min 0 min 0 W/m 0,0 km/h (0 Bft) 93,62 %
05.10.2018 20:44 14,4 C 12,2 C 11,7 C 77 % 1012,0 hPa 0,0 l/m 0 min 0 min 0 W/m 0,0 km/h (0 Bft) 93,62 %
05.10.2018 20:46 14,3 C 12,2 C 11,7 C 77 % 1012,0 hPa 0,0 l/m 0 min 0 min 0 W/m 0,0 km/h (0 Bft) 93,62 %
05.10.2018 20:48 14,2 C 12,2 C 11,7 C 78 % 1012,0 hPa 0,0 l/m 0 min 0 min 0 W/m 0,0 km/h (0 Bft) 91,49 %
05.10.2018 20:50 14,2 C 12,2 C 11,7 C 78 % 1012,0 hPa 0,0 l/m 0 min 0 min 0 W/m 3,2 km/h (1 Bft) 95,74 %
05.10.2018 20:52 14,2 C 12,2 C 11,7 C 78 % 1012,0 hPa 0,0 l/m 0 min 0 min 0 W/m 0,0 km/h (0 Bft) 93,48 %
05.10.2018 20:54 14,2 C 12,8 C 11,7 C 78 % 1012,0 hPa 0,0 l/m 0 min 0 min 0 W/m 6,4 km/h (2 Bft) 93,62 %
05.10.2018 20:56 14,2 C 12,8 C 11,7 C 78 % 1012,0 hPa 0,0 l/m 0 min 0 min 0 W/m 3,2 km/h (1 Bft) 93,62 %
05.10.2018 20:58 14,1 C 12,8 C 11,7 C 79 % 1011,9 hPa 0,0 l/m 0 min 0 min 0 W/m 3,2 km/h (1 Bft) 95,74 %
05.10.2018 21:00 14,1 C 13,3 C 11,7 C 79 % 1011,9 hPa 0,0 l/m 0 min 0 min 0 W/m 3,2 km/h (1 Bft) 97,87 %
05.10.2018 21:02 14,0 C 13,3 C 11,7 C 79 % 1011,9 hPa 0,0 l/m 0 min 0 min 0 W/m 3,2 km/h (1 Bft) 95,65 %
05.10.2018 21:04 14,0 C 13,9 C 11,7 C 80 % 1011,9 hPa 0,0 l/m 0 min 0 min 0 W/m 6,4 km/h (2 Bft) 97,87 %
05.10.2018 21:06 13,9 C 13,9 C 11,7 C 80 % 1011,8 hPa 0,0 l/m 0 min 0 min 0 W/m 6,4 km/h (2 Bft) 93,62 %
05.10.2018 21:08 13,9 C 13,9 C 11,7 C 80 % 1011,9 hPa 0,0 l/m 0 min 0 min 0 W/m 3,2 km/h (1 Bft) 95,74 %
05.10.2018 21:10 13,9 C 13,9 C 11,7 C 81 % 1011,9 hPa 0,0 l/m 0 min 0 min 0 W/m 3,2 km/h (1 Bft) 97,87 %
05.10.2018 21:12 13,9 C 13,9 C 11,7 C 81 % 1011,9 hPa 0,0 l/m 0 min 0 min 0 W/m 3,2 km/h (1 Bft) 95,74 %
05.10.2018 21:14 13,9 C 13,9 C 11,7 C 81 % 1011,8 hPa 0,0 l/m 0 min 0 min 0 W/m 6,4 km/h (2 Bft) 95,74 %
05.10.2018 21:16 13,9 C 14,4 C 11,7 C 81 % 1011,8 hPa 0,0 l/m 0 min 0 min 0 W/m 9,7 km/h (2 Bft) 100,00 %
05.10.2018 21:18 13,9 C 14,4 C 11,7 C 82 % 1011,8 hPa 0,0 l/m 0 min 0 min 0 W/m 6,4 km/h (2 Bft) 100,00 %
05.10.2018 21:20 13,8 C 14,4 C 11,7 C 82 % 1011,7 hPa 0,0 l/m 0 min 0 min 0 W/m 6,4 km/h (2 Bft) 100,00 %
05.10.2018 21:22 13,9 C 14,4 C 11,7 C 82 % 1011,6 hPa 0,0 l/m 0 min 0 min 0 W/m 6,4 km/h (2 Bft) 97,87 %
05.10.2018 21:24 13,9 C 14,4 C 11,7 C 82 % 1011,6 hPa 0,0 l/m 0 min 0 min 0 W/m 9,7 km/h (2 Bft) 100,00 %
05.10.2018 21:26 13,9 C 14,4 C 11,7 C 82 % 1011,7 hPa 0,0 l/m 0 min 0 min 0 W/m 3,2 km/h (1 Bft) 100,00 %
05.10.2018 21:28 13,9 C 13,9 C 12,2 C 82 % 1011,7 hPa 0,0 l/m 0 min 0 min 0 W/m 6,4 km/h (2 Bft) 100,00 %
05.10.2018 21:30 13,9 C 13,9 C 12,2 C 82 % 1011,7 hPa 0,0 l/m 0 min 0 min 0 W/m 6,4 km/h (2 Bft) 100,00 %
05.10.2018 21:32 13,9 C 13,9 C 12,2 C 82 % 1011,7 hPa 0,0 l/m 0 min 0 min 0 W/m 9,7 km/h (2 Bft) 100,00 %
05.10.2018 21:34 13,9 C 13,9 C 12,2 C 82 % 1011,6 hPa 0,0 l/m 0 min 0 min 0 W/m 6,4 km/h (2 Bft) 100,00 %
05.10.2018 21:36 14,0 C 13,9 C 12,2 C 82 % 1011,6 hPa 0,0 l/m 0 min 0 min 0 W/m 6,4 km/h (2 Bft) 100,00 %
05.10.2018 21:38 14,0 C 13,9 C 12,2 C 83 % 1011,6 hPa 0,0 l/m 0 min 0 min 0 W/m 9,7 km/h (2 Bft) 97,83 %
05.10.2018 21:40 14,1 C 13,9 C 12,2 C 83 % 1011,6 hPa 0,0 l/m 0 min 0 min 0 W/m 9,7 km/h (2 Bft) 100,00 %
05.10.2018 21:42 14,1 C 13,9 C 12,2 C 83 % 1011,6 hPa 0,0 l/m 0 min 0 min 0 W/m 9,7 km/h (2 Bft) 100,00 %
05.10.2018 21:44 14,1 C 13,9 C 12,2 C 83 % 1011,6 hPa 0,0 l/m 0 min 0 min 0 W/m 6,4 km/h (2 Bft) 97,87 %
05.10.2018 21:46 14,1 C 13,9 C 12,2 C 83 % 1011,6 hPa 0,0 l/m 0 min 0 min 0 W/m 9,7 km/h (2 Bft) 100,00 %
05.10.2018 21:48 14,2 C 13,9 C 12,2 C 83 % 1011,6 hPa 0,0 l/m 0 min 0 min 0 W/m 6,4 km/h (2 Bft) 97,87 %
05.10.2018 21:50 14,2 C 13,3 C 12,2 C 82 % 1011,5 hPa 0,0 l/m 0 min 0 min 0 W/m 6,4 km/h (2 Bft) 100,00 %
05.10.2018 21:52 14,2 C 13,3 C 12,2 C 82 % 1011,5 hPa 0,0 l/m 0 min 0 min 0 W/m 9,7 km/h (2 Bft) 100,00 %
05.10.2018 21:54 14,2 C 13,3 C 12,2 C 82 % 1011,6 hPa 0,0 l/m 0 min 0 min 0 W/m 6,4 km/h (2 Bft) 100,00 %
05.10.2018 21:56 14,2 C 13,3 C 12,2 C 82 % 1011,6 hPa 0,0 l/m 0 min 0 min 0 W/m 6,4 km/h (2 Bft) 100,00 %
05.10.2018 21:58 14,2 C 13,3 C 12,2 C 82 % 1011,6 hPa 0,0 l/m 0 min 0 min 0 W/m 9,7 km/h (2 Bft) 100,00 %
05.10.2018 22:00 14,2 C 13,3 C 12,2 C 82 % 1011,6 hPa 0,0 l/m 0 min 0 min 0 W/m 3,2 km/h (1 Bft) 100,00 %
05.10.2018 22:02 14,2 C 13,3 C 12,2 C 82 % 1011,6 hPa 0,0 l/m 0 min 0 min 0 W/m 6,4 km/h (2 Bft) 100,00 %
05.10.2018 22:04 14,2 C 13,3 C 12,2 C 82 % 1011,5 hPa 0,0 l/m 0 min 0 min 0 W/m 6,4 km/h (2 Bft) 100,00 %
05.10.2018 22:06 14,2 C 13,3 C 12,2 C 83 % 1011,5 hPa 0,0 l/m 0 min 0 min 0 W/m 6,4 km/h (2 Bft) 100,00 %
05.10.2018 22:08 14,2 C 13,3 C 12,2 C 82 % 1011,5 hPa 0,0 l/m 0 min 0 min 0 W/m 9,7 km/h (2 Bft) 100,00 %
05.10.2018 22:10 14,2 C 13,3 C 12,2 C 83 % 1011,5 hPa 0,0 l/m 0 min 0 min 0 W/m 6,4 km/h (2 Bft) 100,00 %
05.10.2018 22:12 14,2 C 13,3 C 12,2 C 83 % 1011,5 hPa 0,0 l/m 0 min 0 min 0 W/m 6,4 km/h (2 Bft) 100,00 %
05.10.2018 22:14 14,2 C 13,3 C 12,2 C 83 % 1011,5 hPa 0,0 l/m 0 min 0 min 0 W/m 9,7 km/h (2 Bft) 100,00 %
05.10.2018 22:16 14,2 C 13,3 C 12,2 C 83 % 1011,5 hPa 0,0 l/m 0 min 0 min 0 W/m 9,7 km/h (2 Bft) 100,00 %
05.10.2018 22:18 14,2 C 13,3 C 12,2 C 83 % 1011,5 hPa 0,0 l/m 0 min 0 min 0 W/m 3,2 km/h (1 Bft) 100,00 %
05.10.2018 22:20 14,2 C 13,3 C 12,2 C 83 % 1011,5 hPa 0,0 l/m 0 min 0 min 0 W/m 0,0 km/h (0 Bft) 100,00 %
05.10.2018 22:22 14,2 C 13,3 C 12,2 C 83 % 1011,5 hPa 0,0 l/m 0 min 0 min 0 W/m 0,0 km/h (0 Bft) 100,00 %
05.10.2018 22:24 14,2 C 13,3 C 12,2 C 83 % 1011,5 hPa 0,0 l/m 0 min 0 min 0 W/m 0,0 km/h (0 Bft) 100,00 %
05.10.2018 22:26 14,2 C 13,3 C 12,2 C 83 % 1011,5 hPa 0,0 l/m 0 min 0 min 0 W/m 6,4 km/h (2 Bft) 100,00 %
05.10.2018 22:28 14,2 C 13,3 C 12,2 C 83 % 1011,5 hPa 0,0 l/m 0 min 0 min 0 W/m 6,4 km/h (2 Bft) 100,00 %
05.10.2018 22:30 14,2 C 13,3 C 12,2 C 83 % 1011,5 hPa 0,0 l/m 0 min 0 min 0 W/m 6,4 km/h (2 Bft) 100,00 %
05.10.2018 22:32 14,2 C 13,3 C 12,2 C 83 % 1011,5 hPa 0,0 l/m 0 min 0 min 0 W/m 12,9 km/h (3 Bft) 100,00 %
05.10.2018 22:34 14,2 C 13,3 C 12,2 C 83 % 1011,6 hPa 0,0 l/m 0 min 0 min 0 W/m 3,2 km/h (1 Bft) 100,00 %
05.10.2018 22:36 14,1 C 13,3 C 12,2 C 83 % 1011,5 hPa 0,0 l/m 0 min 0 min 0 W/m 6,4 km/h (2 Bft) 100,00 %
05.10.2018 22:38 14,1 C 13,3 C 12,2 C 83 % 1011,6 hPa 0,0 l/m 0 min 0 min 0 W/m 6,4 km/h (2 Bft) 100,00 %
05.10.2018 22:40 14,1 C 13,3 C 12,2 C 83 % 1011,5 hPa 0,0 l/m 0 min 0 min 0 W/m 6,4 km/h (2 Bft) 95,74 %
05.10.2018 22:42 14,1 C 13,3 C 12,2 C 83 % 1011,5 hPa 0,0 l/m 0 min 0 min 0 W/m 9,7 km/h (2 Bft) 97,87 %
05.10.2018 22:44 14,1 C 13,3 C 12,2 C 83 % 1011,6 hPa 0,0 l/m 0 min 0 min 0 W/m 9,7 km/h (2 Bft) 100,00 %
05.10.2018 22:46 14,1 C 13,3 C 12,2 C 83 % 1011,5 hPa 0,0 l/m 0 min 0 min 0 W/m 6,4 km/h (2 Bft) 97,87 %
05.10.2018 22:48 14,1 C 12,8 C 12,2 C 83 % 1011,6 hPa 0,0 l/m 0 min 0 min 0 W/m 6,4 km/h (2 Bft) 97,83 %
05.10.2018 22:50 14,1 C 12,8 C 12,2 C 83 % 1011,5 hPa 0,0 l/m 0 min 0 min 0 W/m 9,7 km/h (2 Bft) 97,87 %
05.10.2018 22:52 14,0 C 12,8 C 12,2 C 83 % 1011,5 hPa 0,0 l/m 0 min 0 min 0 W/m 6,4 km/h (2 Bft) 97,87 %
05.10.2018 22:54 14,0 C 12,8 C 12,2 C 83 % 1011,6 hPa 0,0 l/m 0 min 0 min 0 W/m 6,4 km/h (2 Bft) 97,87 %
05.10.2018 22:56 13,9 C 12,8 C 12,2 C 83 % 1011,5 hPa 0,0 l/m 0 min 0 min 0 W/m 9,7 km/h (2 Bft) 97,87 %
05.10.2018 22:58 13,9 C 12,8 C 12,2 C 84 % 1011,5 hPa 0,0 l/m 0 min 0 min 0 W/m 9,7 km/h (2 Bft) 97,87 %
05.10.2018 23:00 13,9 C 12,8 C 12,2 C 84 % 1011,5 hPa 0,0 l/m 0 min 0 min 0 W/m 6,4 km/h (2 Bft) 97,83 %
05.10.2018 23:02 13,9 C 12,8 C 12,2 C 84 % 1011,5 hPa 0,0 l/m 0 min 0 min 0 W/m 9,7 km/h (2 Bft) 95,74 %
05.10.2018 23:04 13,9 C 12,8 C 12,2 C 84 % 1011,5 hPa 0,0 l/m 0 min 0 min 0 W/m 12,9 km/h (3 Bft) 95,74 %
05.10.2018 23:06 13,8 C 12,8 C 12,2 C 84 % 1011,5 hPa 0,0 l/m 0 min 0 min 0 W/m 9,7 km/h (2 Bft) 95,74 %
05.10.2018 23:08 13,8 C 12,8 C 12,2 C 84 % 1011,5 hPa 0,0 l/m 0 min 0 min 0 W/m 9,7 km/h (2 Bft) 93,62 %
05.10.2018 23:10 13,8 C 12,8 C 12,2 C 84 % 1011,5 hPa 0,0 l/m 0 min 0 min 0 W/m 9,7 km/h (2 Bft) 93,62 %
05.10.2018 23:12 13,8 C 12,8 C 12,2 C 84 % 1011,5 hPa 0,0 l/m 0 min 0 min 0 W/m 9,7 km/h (2 Bft) 95,65 %
05.10.2018 23:14 13,8 C 12,8 C 12,2 C 85 % 1011,5 hPa 0,0 l/m 0 min 0 min 0 W/m 6,4 km/h (2 Bft) 95,74 %
05.10.2018 23:16 13,8 C 12,8 C 12,2 C 85 % 1011,5 hPa 0,0 l/m 0 min 0 min 0 W/m 6,4 km/h (2 Bft) 93,62 %
05.10.2018 23:18 13,7 C 12,8 C 12,2 C 85 % 1011,5 hPa 0,0 l/m 0 min 0 min 0 W/m 9,7 km/h (2 Bft) 93,62 %
05.10.2018 23:20 13,7 C 12,8 C 12,2 C 85 % 1011,5 hPa 0,0 l/m 0 min 0 min 0 W/m 9,7 km/h (2 Bft) 95,74 %
05.10.2018 23:22 13,7 C 12,8 C 11,7 C 85 % 1011,5 hPa 0,0 l/m 0 min 0 min 0 W/m 6,4 km/h (2 Bft) 95,74 %
05.10.2018 23:24 13,7 C 12,8 C 11,7 C 85 % 1011,5 hPa 0,0 l/m 0 min 0 min 0 W/m 6,4 km/h (2 Bft) 95,65 %
05.10.2018 23:26 13,7 C 12,8 C 11,7 C 85 % 1011,5 hPa 0,0 l/m 0 min 0 min 0 W/m 6,4 km/h (2 Bft) 95,74 %
05.10.2018 23:28 13,7 C 12,8 C 11,7 C 85 % 1011,5 hPa 0,0 l/m 0 min 0 min 0 W/m 6,4 km/h (2 Bft) 93,62 %
05.10.2018 23:30 13,6 C 12,8 C 11,7 C 85 % 1011,5 hPa 0,0 l/m 0 min 0 min 0 W/m 6,4 km/h (2 Bft) 95,74 %
05.10.2018 23:32 13,6 C 12,8 C 11,7 C 85 % 1011,5 hPa 0,0 l/m 0 min 0 min 0 W/m 6,4 km/h (2 Bft) 95,74 %
05.10.2018 23:34 13,6 C 12,8 C 11,7 C 85 % 1011,4 hPa 0,0 l/m 0 min 0 min 0 W/m 9,7 km/h (2 Bft) 95,74 %
05.10.2018 23:36 13,6 C 12,8 C 11,7 C 85 % 1011,5 hPa 0,0 l/m 0 min 0 min 0 W/m 6,4 km/h (2 Bft) 95,12 %
05.10.2018 23:38 13,6 C 12,8 C 11,7 C 85 % 1011,5 hPa 0,0 l/m 0 min 0 min 0 W/m 3,2 km/h (1 Bft) 95,65 %
05.10.2018 23:40 13,5 C 12,2 C 11,7 C 85 % 1011,5 hPa 0,0 l/m 0 min 0 min 0 W/m 6,4 km/h (2 Bft) 95,74 %
05.10.2018 23:42 13,5 C 12,8 C 11,7 C 85 % 1011,4 hPa 0,0 l/m 0 min 0 min 0 W/m 9,7 km/h (2 Bft) 95,74 %
05.10.2018 23:44 13,5 C 12,8 C 11,7 C 85 % 1011,5 hPa 0,0 l/m 0 min 0 min 0 W/m 9,7 km/h (2 Bft) 93,62 %
05.10.2018 23:46 13,4 C 12,8 C 11,7 C 85 % 1011,5 hPa 0,0 l/m 0 min 0 min 0 W/m 6,4 km/h (2 Bft) 96,00 %
05.10.2018 23:48 13,4 C 12,8 C 11,7 C 86 % 1011,5 hPa 0,0 l/m 0 min 0 min 0 W/m 6,4 km/h (2 Bft) 95,65 %
05.10.2018 23:50 13,4 C 12,8 C 11,7 C 86 % 1011,5 hPa 0,0 l/m 0 min 0 min 0 W/m 6,4 km/h (2 Bft) 95,74 %
05.10.2018 23:52 13,4 C 12,8 C 11,7 C 86 % 1011,5 hPa 0,0 l/m 0 min 0 min 0 W/m 6,4 km/h (2 Bft) 97,87 %
05.10.2018 23:54 13,4 C 12,2 C 11,7 C 86 % 1011,5 hPa 0,0 l/m 0 min 0 min 0 W/m 6,4 km/h (2 Bft) 97,87 %
05.10.2018 23:56 13,4 C 12,2 C 11,7 C 86 % 1011,4 hPa 0,0 l/m 0 min 0 min 0 W/m 6,4 km/h (2 Bft) 93,62 %
05.10.2018 23:58 13,3 C 12,2 C 11,7 C 86 % 1011,5 hPa 0,0 l/m 0 min 0 min 0 W/m 6,4 km/h (2 Bft) 97,87 %
_ Min-Zeit 07:36 05:34 07:10 17:06 23:34 - - - - 05:34 00:02
Minimum _ 8,4 C 7,8 C 7,8 C 52 % 1011,4 hPa - - - - 0,0 km/h (0 Bft) 11,76 %
_ Max-Zeit 16:54 11:56 16:04 05:38 00:00 00:00 12:07 00:00 13:38 10:44 01:18
Maximum _ 22,7 C 26,7 C 18,3 C 94 % 1021,6 hPa 0,0 l/m 3 min 0 min 554 W/m 22,5 km/h
S-SO (4 Bft)
100,00 %
Durchschnitt _ 14,3 C 14,5 C 12,0 C 79 % 1016,3 hPa #0,0 l/m #5:10 h #0 min. 214 W/m 9,1 km/h (2 Bft) 97,22 %
© 2018 W. Hausmann